FW1818 Weather Reports


Display with metric or nautical units.
time (UTC)temp
F
wind
direction
speed
MPH
gust
MPH
rain 1hr
in
rain 24hr
in
rain mn
in
humidity
%
barometer
mb
20181114195315 53 69 4.0 10.0 0.00 0.00 0.00 39 1024.3
20181114194317 53 93 5.0 8.0 0.00 0.00 0.00 39 1024.4
20181114193321 52 85 5.0 8.0 0.00 0.00 0.00 41 1024.9
20181114192324 52 66 4.0 8.0 0.00 0.00 0.00 41 1025.1
20181114191331 52 79 4.0 8.0 0.00 0.00 0.00 43 1025.2
20181114190312 51 91 3.0 10.0 0.00 0.00 0.00 47 1025.1
20181114185315 51 91 6.0 9.0 0.00 0.00 0.00 46 1025.2
20181114184320 51 96 6.0 10.0 0.00 0.00 0.00 45 1025.3
20181114183325 51 87 6.0 9.0 0.00 0.00 0.00 43 1025.3
20181114182822 51 106 6.0 8.0 0.00 0.00 0.00 45 1025.2
20181114181831 51 77 5.0 8.0 0.00 0.00 0.00 44 1025.5
20181114180820 51 78 4.0 7.0 0.00 0.00 0.00 40 1025.5
20181114180317 51 89 4.0 7.0 0.00 0.00 0.00 40 1025.5
20181114175819 51 111 3.0 7.0 0.00 0.00 0.00 41 1025.6
20181114174817 50 95 2.0 5.0 0.00 0.00 0.00 45 1025.7
20181114173820 51 93 2.0 4.0 0.00 0.00 0.00 39 1025.8
20181114172822 52 97 3.0 4.0 0.00 0.00 0.00 38 1025.9
20181114171825 52 92 0.0 2.0 0.00 0.00 0.00 36 1026.0
20181114170320 51 41 1.0 6.0 0.00 0.00 0.00 34 1026.0
20181114165325 51 54 4.0 8.0 0.00 0.00 0.00 35 1026.3
20181114164325 51 63 4.0 7.0 0.00 0.00 0.00 37 1026.2
20181114163318 52 53 5.0 6.0 0.00 0.00 0.00 35 1026.3
20181114162323 53 85 1.0 3.0 0.00 0.00 0.00 32 1026.1
20181114161326 53 63 1.0 2.0 0.00 0.00 0.00 32 1026.1
20181114160813 53 77 0.0 2.0 0.00 0.00 0.00 31 1026.1
20181114155815 53 43 0.0 2.0 0.00 0.00 0.00 32 1026.1
20181114154819 52 353 0.0 1.0 0.00 0.00 0.00 33 1026.1
20181114153821 51 275 0.0 1.0 0.00 0.00 0.00 34 1026.1
20181114152830 51 221 0.0 2.0 0.00 0.00 0.00 35 1025.9
20181114151829 50 225 1.0 2.0 0.00 0.00 0.00 36 1025.7
20181114150819 50 84 0.0 1.0 0.00 0.00 0.00 35 1025.7
20181114145819 51 84 0.0 2.0 0.00 0.00 0.00 35 1025.5
20181114144830 51 98 1.0 2.0 0.00 0.00 0.00 34 1025.5
20181114144324 51 108 1.0 3.0 0.00 0.00 0.00 34 1025.6
20181114143332 52 100 3.0 4.0 0.00 0.00 0.00 33 1025.6
20181114142825 52 84 3.0 4.0 0.00 0.00 0.00 33 1025.6
20181114142328 51 84 1.0 3.0 0.00 0.00 0.00 34 1025.7
20181114141810 51 114 1.0 3.0 0.00 0.00 0.00 36 1025.5
20181114140815 52 73 2.0 8.0 0.00 0.00 0.00 36 1025.5
20181114135818 53 73 7.0 10.0 0.00 0.00 0.00 35 1025.4
20181114134826 52 92 9.0 10.0 0.00 0.00 0.00 33 1025.2
20181114134312 52 96 8.0 10.0 0.00 0.00 0.00 34 1025.2
20181114133312 52 91 4.0 7.0 0.00 0.00 0.00 35 1025.5
20181114132313 53 89 6.0 8.0 0.00 0.00 0.00 33 1025.6
20181114131314 53 90 7.0 8.0 0.00 0.00 0.00 33 1025.5
20181114130322 52 93 6.0 7.0 0.00 0.00 0.00 34 1025.7
20181114125818 51 95 5.0 7.0 0.00 0.00 0.00 36 1025.8
20181114124829 51 100 6.0 7.0 0.00 0.00 0.00 39 1025.7
20181114124312 51 93 6.0 7.0 0.00 0.00 0.00 39 1025.8
20181114123312 51 101 5.0 7.0 0.00 0.00 0.00 39 1025.9
20181114122319 51 100 5.0 7.0 0.00 0.00 0.00 39 1025.8
20181114121318 51 84 5.0 7.0 0.00 0.00 0.00 40 1025.7
20181114120322 51 89 6.0 7.0 0.00 0.00 0.00 39 1025.7
20181114115326 50 87 5.0 6.0 0.00 0.00 0.00 42 1025.6
20181114114327 50 39 1.0 3.0 0.00 0.00 0.00 43 1025.5
20181114113815 50 24 0.0 2.0 0.00 0.00 0.00 42 1025.6
20181114112824 50 5 2.0 6.0 0.00 0.00 0.00 39 1025.7
20181114111824 51 21 3.0 5.0 0.00 0.00 0.00 39 1025.7
20181114110826 51 31 3.0 4.0 0.00 0.00 0.00 39 1025.6
20181114105810 51 28 1.0 2.0 0.00 0.00 0.00 39 1025.7
20181114104814 51 28 1.0 2.0 0.00 0.00 0.00 39 1025.7
20181114104313 51 29 1.0 3.0 0.00 0.00 0.00 39 1025.8
20181114103809 51 29 1.0 3.0 0.00 0.00 0.00 39 1026.0
20181114102832 50 16 1.0 2.0 0.00 0.00 0.00 40 1026.1
20181114102310 50 335 1.0 2.0 0.00 0.00 0.00 39 1026.0
20181114101311 51 78 1.0 4.0 0.00 0.00 0.00 39 1026.0
20181114100317 51 69 4.0 5.0 0.00 0.00 0.00 40 1025.7
20181114095318 53 80 0.0 1.0 0.00 0.00 0.00 39 1025.8
20181114094321 55 96 0.0 1.0 0.00 0.00 0.00 37 1025.9
20181114093327 55 108 0.0 0.0 0.00 0.00 0.00 35 1025.9
20181114092823 55 109 0.0 0.0 0.00 0.00 0.00 34 1026.0
20181114092326 55 107 0.0 0.0 0.00 0.00 0.00 34 1026.1
20181114091329 55 106 0.0 0.0 0.00 0.00 0.00 34 1026.2
20181114090313 55 106 0.0 0.0 0.00 0.00 0.00 35 1025.9
20181114085318 54 183 0.0 0.0 0.00 0.00 0.00 35 1026.2
20181114084324 55 183 0.0 0.0 0.00 0.00 0.00 35 1026.0
20181114083327 54 183 0.0 0.0 0.00 0.00 0.00 36 1026.0
20181114082330 54 183 0.0 0.0 0.00 0.00 0.00 35 1025.9
20181114081813 54 183 0.0 0.0 0.00 0.00 0.00 35 1026.1
20181114080813 54 183 0.0 0.0 0.00 0.00 0.00 35 1026.1
20181114075830 55 183 0.0 1.0 0.00 0.00 0.00 34 1026.0
20181114074822 55 183 0.0 1.0 0.00 0.00 0.00 35 1026.0
20181114073825 55 184 1.0 2.0 0.00 0.00 0.00 36 1025.9
20181114072827 55 125 1.0 3.0 0.00 0.00 0.00 36 1025.8
20181114072322 55 117 2.0 3.0 0.00 0.00 0.00 36 1025.9
20181114071327 55 152 1.0 2.0 0.00 0.00 0.00 36 1026.0
20181114070333 55 115 2.0 3.0 0.00 0.00 0.00 35 1026.0
20181114065314 55 112 2.0 3.0 0.00 0.00 0.00 36 1026.0
20181114064316 56 108 3.0 5.0 0.00 0.00 0.00 35 1026.0
20181114063323 56 107 4.0 5.0 0.00 0.00 0.00 35 1026.1
20181114062820 56 111 4.0 5.0 0.00 0.00 0.00 35 1026.1
20181114062323 56 117 4.0 5.0 0.00 0.00 0.00 35 1026.1
20181114061324 56 107 5.0 6.0 0.00 0.00 0.00 34 1026.1
20181114060327 57 112 5.0 5.0 0.00 0.00 0.00 33 1026.0
20181114055332 57 135 3.0 4.0 0.00 0.00 0.00 32 1026.2
20181114054313 56 126 2.0 3.0 0.00 0.00 0.00 32 1026.2
20181114053322 56 139 1.0 2.0 0.00 0.00 0.00 35 1026.2
20181114052319 55 183 2.0 2.0 0.00 0.00 0.00 36 1026.4
20181114051327 55 63 0.0 0.0 0.00 0.00 0.00 35 1026.1
20181114050332 55 63 0.0 0.0 0.00 0.00 0.00 37 1026.1
20181114045812 55 63 0.0 0.0 0.00 0.00 0.00 36 1026.2
20181114044815 56 63 0.0 2.0 0.00 0.00 0.00 34 1026.0
20181114043823 56 63 2.0 3.0 0.00 0.00 0.00 35 1026.0
20181114042821 56 64 3.0 3.0 0.00 0.00 0.00 36 1026.0
20181114041824 56 66 3.0 3.0 0.00 0.00 0.00 37 1026.0
20181114040828 56 66 2.0 3.0 0.00 0.00 0.00 36 1025.9
20181114035831 56 91 3.0 5.0 0.00 0.00 0.00 36 1026.0
20181114034813 56 98 4.0 5.0 0.00 0.00 0.00 37 1025.8
20181114033817 56 104 4.0 5.0 0.00 0.00 0.00 39 1025.7
20181114032817 56 93 5.0 6.0 0.00 0.00 0.00 39 1025.7
20181114031837 56 104 4.0 6.0 0.00 0.00 0.00 40 1026.1
20181114030839 56 88 4.0 6.0 0.00 0.00 0.00 43 1026.1
20181114025847 56 95 5.0 6.0 0.00 0.00 0.00 44 1026.1
20181114024851 56 82 5.0 7.0 0.00 0.00 0.00 44 1026.0
20181114024354 56 92 4.0 7.0 0.00 0.00 0.00 45 1026.1
20181114023353 56 94 6.0 8.0 0.00 0.00 0.00 44 1025.9
20181114022834 56 98 6.0 9.0 0.00 0.00 0.00 43 1025.8
20181114021840 56 110 7.0 8.0 0.00 0.00 0.00 42 1025.9
20181114020846 57 105 6.0 8.0 0.00 0.00 0.00 42 1025.9
20181114015853 57 111 5.0 6.0 0.00 0.00 0.00 44 1026.0
20181114014852 57 100 5.0 7.0 0.00 0.00 0.00 41 1025.9
20181114014336 58 89 6.0 7.0 0.00 0.00 0.00 40 1025.9
20181114013338 58 93 7.0 9.0 0.00 0.00 0.00 39 1025.9
20181114012833 58 84 6.0 9.0 0.00 0.00 0.00 38 1025.9
20181114011842 58 91 6.0 8.0 0.00 0.00 0.00 36 1026.0
20181114010848 58 95 6.0 8.0 0.00 0.00 0.00 35 1026.0
20181114005855 58 93 5.0 8.0 0.00 0.00 0.00 37 1025.9
20181114004841 58 95 5.0 7.0 0.00 0.00 0.00 38 1025.9
20181114004341 58 102 4.0 7.0 0.00 0.00 0.00 37 1025.9
20181114003341 58 102 5.0 8.0 0.00 0.00 0.00 34 1026.1
20181114002838 58 99 5.0 8.0 0.00 0.00 0.00 34 1026.0
20181114001840 58 88 6.0 7.0 0.00 0.00 0.00 33 1026.0
20181114000848 58 95 5.0 7.0 0.00 0.00 0.00 35 1026.1
20181113235852 58 98 4.0 7.0 0.00 0.00 0.00 37 1026.1
20181113235341 58 101 4.0 6.0 0.00 0.00 0.00 38 1026.2
20181113233847 58 88 5.0 6.0 0.00 0.00 0.00 39 1026.4
20181113232856 58 86 5.0 7.0 0.00 0.00 0.00 39 1026.3
20181113232335 58 92 4.0 8.0 0.00 0.00 0.00 38 1026.2
20181113231338 58 93 5.0 9.0 0.00 0.00 0.00 38 1026.3
20181113230343 58 95 4.0 6.0 0.00 0.00 0.00 37 1026.4
20181113225349 58 79 4.0 6.0 0.00 0.00 0.00 36 1026.4
20181113224334 58 98 2.0 4.0 0.00 0.00 0.00 37 1026.5
20181113223339 58 112 3.0 5.0 0.00 0.00 0.00 38 1026.6
20181113222338 58 100 3.0 7.0 0.00 0.00 0.00 37 1026.4
20181113221341 58 78 5.0 7.0 0.00 0.00 0.00 35 1026.5
20181113220351 57 122 4.0 6.0 0.00 0.00 0.00 36 1026.7
20181113215351 57 69 4.0 6.0 0.00 0.00 0.00 36 1026.7
20181113214833 57 93 4.0 6.0 0.00 0.00 0.00 37 1026.7
20181113213836 57 74 3.0 6.0 0.00 0.00 0.00 39 1026.5
20181113212848 57 86 4.0 7.0 0.00 0.00 0.00 39 1026.5
20181113212345 56 91 4.0 7.0 0.00 0.00 0.00 39 1026.6
20181113211349 56 76 3.0 5.0 0.00 0.00 0.00 40 1026.7
20181113210339 56 117 2.0 5.0 0.00 0.00 0.00 41 1026.8
20181113205340 55 64 4.0 7.0 0.00 0.00 0.00 41 1026.8
20181113204343 55 77 6.0 10.0 0.00 0.00 0.00 40 1026.9
20181113203355 55 91 5.0 9.0 0.00 0.00 0.00 40 1027.0
20181113202337 55 70 6.0 10.0 0.00 0.00 0.00 38 1027.0
20181113201336 55 86 5.0 11.0 0.00 0.00 0.00 40 1027.3
20181113200342 55 86 5.0 10.0 0.00 0.00 0.00 39 1027.3
20181113195343 54 81 5.0 9.0 0.00 0.00 0.00 40 1027.5
20181113194352 54 85 7.0 9.0 0.00 0.00 0.00 39 1027.6
20181113193837 54 76 7.0 9.0 0.00 0.00 0.00 40 1027.8
20181113192845 54 88 5.0 8.0 0.00 0.00 0.00 39 1028.3
20181113191844 53 95 4.0 9.0 0.00 0.00 0.00 38 1028.3
20181113190850 53 76 6.0 9.0 0.00 0.00 0.00 38 1028.3
20181113185853 52 82 7.0 11.0 0.00 0.00 0.00 41 1028.1
20181113184841 52 86 8.0 10.0 0.00 0.00 0.00 38 1028.1
20181113183843 52 123 5.0 9.0 0.00 0.00 0.00 36 1028.4
20181113182851 52 89 6.0 9.0 0.00 0.00 0.00 38 1028.3
20181113181853 51 105 4.0 10.0 0.00 0.00 0.00 40 1028.4
20181113180836 51 87 8.0 15.0 0.00 0.00 0.00 38 1028.2
20181113175835 51 79 8.0 13.0 0.00 0.00 0.00 39 1028.3
20181113174844 52 76 9.0 14.0 0.00 0.00 0.00 38 1028.2
20181113173845 51 55 7.0 14.0 0.00 0.00 0.00 39 1028.2
20181113172857 51 69 8.0 14.0 0.00 0.00 0.00 39 1028.2
20181113171854 50 65 7.0 11.0 0.00 0.00 0.00 40 1028.4
20181113170840 50 84 7.0 16.0 0.00 0.00 0.00 41 1028.4
20181113165845 49 63 9.0 13.0 0.00 0.00 0.00 42 1028.1
20181113164847 49 62 10.0 16.0 0.00 0.00 0.00 42 1028.0
20181113163834 48 91 6.0 10.0 0.00 0.00 0.00 42 1027.9
20181113162835 48 91 5.0 8.0 0.00 0.00 0.00 41 1028.0
20181113162334 48 101 5.0 8.0 0.00 0.00 0.00 41 1028.0
20181113161343 47 73 6.0 9.0 0.00 0.00 0.00 42 1027.7
20181113160348 47 84 6.0 10.0 0.00 0.00 0.00 41 1027.6
20181113155350 46 76 7.0 10.0 0.00 0.00 0.00 41 1027.6
20181113154354 46 95 8.0 10.0 0.00 0.00 0.00 39 1027.4
20181113152847 46 82 8.0 11.0 0.00 0.00 0.00 38 1027.4
20181113152348 46 88 7.0 10.0 0.00 0.00 0.00 37 1027.3
20181113151337 46 79 7.0 11.0 0.00 0.00 0.00 38 1027.0
20181113150339 47 84 6.0 7.0 0.00 0.00 0.00 37 1027.0
20181113145341 47 77 6.0 8.0 0.00 0.00 0.00 35 1026.8
20181113144345 48 80 7.0 8.0 0.00 0.00 0.00 33 1026.6
20181113143351 49 76 6.0 7.0 0.00 0.00 0.00 32 1026.8
20181113142334 50 76 6.0 9.0 0.00 0.00 0.00 31 1026.7
20181113141342 51 67 8.0 12.0 0.00 0.00 0.00 31 1026.4
20181113140343 51 75 8.0 12.0 0.00 0.00 0.00 30 1026.7
20181113135349 51 62 8.0 13.0 0.00 0.00 0.00 31 1026.7
20181113133837 50 51 8.0 12.0 0.00 0.00 0.00 33 1026.6
20181113132839 50 64 7.0 12.0 0.00 0.00 0.00 33 1026.5
20181113131850 50 60 10.0 11.0 0.00 0.00 0.00 36 1026.3
20181113130851 48 74 7.0 8.0 0.00 0.00 0.00 35 1026.3
20181113130338 49 83 6.0 11.0 0.00 0.00 0.00 37 1026.3
20181113124846 49 75 9.0 11.0 0.00 0.00 0.00 38 1026.0
20181113123853 50 57 8.0 10.0 0.00 0.00 0.00 43 1026.1
20181113122853 51 48 6.0 10.0 0.00 0.00 0.00 39 1025.9
20181113122338 51 71 7.0 10.0 0.00 0.00 0.00 38 1025.9
20181113121836 51 65 8.0 9.0 0.00 0.00 0.00 37 1025.9
20181113120347 51 65 6.0 7.0 0.00 0.00 0.00 42 1026.0
20181113115355 51 60 2.0 5.0 0.00 0.00 0.00 42 1026.0
20181113114852 52 53 2.0 5.0 0.00 0.00 0.00 42 1026.0
20181113113836 52 58 1.0 4.0 0.00 0.00 0.00 41 1026.0
20181113112848 52 48 3.0 6.0 0.00 0.00 0.00 41 1026.0
20181113111851 51 62 1.0 3.0 0.00 0.00 0.00 42 1026.1
20181113110857 51 107 0.0 2.0 0.00 0.00 0.00 36 1026.0
20181113110443 51 31 0.0 2.0 0.00 0.00 0.00 36 1026.0
20181113104839 52 50 3.0 4.0 0.00 0.00 0.00 36 1026.0
20181113103840 52 61 2.0 4.0 0.00 0.00 0.00 36 1026.1
20181113102847 51 46 2.0 6.0 0.00 0.00 0.00 36 1025.8
20181113102335 52 53 4.0 6.0 0.00 0.00 0.00 36 1025.9
20181113101342 52 43 3.0 6.0 0.00 0.00 0.00 37 1025.9
20181113100343 53 46 5.0 7.0 0.00 0.00 0.00 36 1025.9
20181113095349 53 44 4.0 5.0 0.00 0.00 0.00 41 1025.9
20181113094331 53 43 4.0 5.0 0.00 0.00 0.00 37 1025.8
20181113093337 54 42 4.0 5.0 0.00 0.00 0.00 36 1026.0
20181113091841 55 34 4.0 6.0 0.00 0.00 0.00 36 1025.8
20181113090846 54 20 4.0 8.0 0.00 0.00 0.00 27 1025.8
20181113085851 55 40 6.0 8.0 0.00 0.00 0.00 27 1025.7
20181113085332 56 33 6.0 8.0 0.00 0.00 0.00 27 1025.7
20181113084336 56 34 5.0 7.0 0.00 0.00 0.00 28 1025.8
20181113083339 57 29 4.0 6.0 0.00 0.00 0.00 28 1025.9
20181113082836 57 30 5.0 7.0 0.00 0.00 0.00 28 1025.9
20181113081859 57 48 5.0 6.0 0.00 0.00 0.00 28 1025.8
20181113080849 57 37 4.0 5.0 0.00 0.00 0.00 29 1025.9
20181113075902 57 39 3.0 5.0 0.00 0.00 0.00 29 1025.8
20181113075353 57 36 3.0 4.0 0.00 0.00 0.00 28 1025.7
20181113074352 57 32 3.0 4.0 0.00 0.00 0.00 28 1025.8
20181113073341 58 29 2.0 3.0 0.00 0.00 0.00 28 1025.7
20181113072342 58 355 1.0 4.0 0.00 0.00 0.00 28 1025.4
20181113071343 59 20 4.0 5.0 0.00 0.00 0.00 27 1025.4
20181113070347 59 11 3.0 5.0 0.00 0.00 0.00 28 1025.3
20181113065349 58 329 2.0 4.0 0.00 0.00 0.00 28 1025.5
20181113064352 59 325 3.0 6.0 0.00 0.00 0.00 29 1025.3
20181113063819 59 354 4.0 6.0 0.00 0.00 0.00 28 1025.3
20181113063306 59 15 4.0 5.0 0.00 0.00 0.00 28 1025.3
20181113062310 59 336 3.0 5.0 0.00 0.00 0.00 28 1025.3
20181113061316 59 20 4.0 4.0 0.00 0.00 0.00 28 1025.3
20181113060319 58 347 2.0 3.0 0.00 0.00 0.00 31 1025.5
20181113055318 59 314 2.0 3.0 0.00 0.00 0.00 37 1025.6
20181113054308 59 341 1.0 3.0 0.00 0.00 0.00 35 1025.4
20181113053313 59 29 1.0 2.0 0.00 0.00 0.00 37 1025.2
20181113051819 59 34 2.0 4.0 0.00 0.00 0.00 36 1025.1
20181113050821 59 28 1.0 2.0 0.00 0.00 0.00 37 1025.0
20181113045828 58 284 0.0 1.0 0.00 0.00 0.00 36 1025.2
20181113045304 58 284 0.0 2.0 0.00 0.00 0.00 36 1025.2
20181113044308 58 329 1.0 3.0 0.00 0.00 0.00 37 1024.9
20181113043316 58 347 0.0 2.0 0.00 0.00 0.00 36 1024.9
20181113042316 58 64 0.0 1.0 0.00 0.00 0.00 37 1024.8
20181113041316 59 64 0.0 2.0 0.00 0.00 0.00 37 1024.4
20181113040321 59 63 1.0 2.0 0.00 0.00 0.00 37 1024.4
20181113035809 59 68 0.0 1.0 0.00 0.00 0.00 37 1024.3
20181113034813 59 67 0.0 2.0 0.00 0.00 0.00 37 1024.3
20181113033817 59 67 0.0 2.0 0.00 0.00 0.00 37 1024.3
20181113032817 60 69 1.0 2.0 0.00 0.00 0.00 37 1024.2
20181113031826 60 66 1.0 2.0 0.00 0.00 0.00 37 1024.1
20181113030807 60 84 1.0 2.0 0.00 0.00 0.00 37 1024.0
20181113025819 60 88 1.0 4.0 0.00 0.00 0.00 36 1024.2
20181113024825 60 98 2.0 4.0 0.00 0.00 0.00 36 1024.4
20181113023808 61 86 3.0 5.0 0.00 0.00 0.00 35 1024.0
20181113022814 61 91 5.0 7.0 0.00 0.00 0.00 35 1023.8
20181113021816 61 91 6.0 7.0 0.00 0.00 0.00 34 1023.9
20181113020818 61 97 7.0 8.0 0.00 0.00 0.00 33 1023.8
20181113015820 62 95 7.0 8.0 0.00 0.00 0.00 32 1023.6
20181113014827 62 108 7.0 7.0 0.00 0.00 0.00 32 1023.5
20181113014306 62 101 6.0 6.0 0.00 0.00 0.00 33 1023.6
20181113013312 62 126 4.0 5.0 0.00 0.00 0.00 32 1023.5
20181113012809 62 131 4.0 5.0 0.00 0.00 0.00 32 1023.6
20181113011824 62 128 5.0 5.0 0.00 0.00 0.00 32 1023.4
20181113010824 62 116 5.0 6.0 0.00 0.00 0.00 33 1023.4
20181113005823 62 108 5.0 7.0 0.00 0.00 0.00 32 1023.5
20181113005311 62 99 5.0 7.0 0.00 0.00 0.00 31 1023.6
20181113004313 63 89 6.0 7.0 0.00 0.00 0.00 29 1023.5
20181113003325 63 85 5.0 6.0 0.00 0.00 0.00 27 1023.5
20181113002305 63 95 4.0 5.0 0.00 0.00 0.00 27 1023.6
20181113001306 63 93 4.0 5.0 0.00 0.00 0.00 25 1023.7
20181113000320 63 96 2.0 3.0 0.00 0.00 0.00 24 1023.8
20181112235322 63 93 2.0 4.0 0.00 0.00 0.00 26 1023.5
20181112234307 63 89 2.0 5.0 0.00 0.00 0.00 25 1023.6
20181112233330 63 83 3.0 5.0 0.00 0.00 0.00 25 1023.5
20181112232811 63 90 4.0 5.0 0.00 0.00 0.00 24 1023.6
20181112231818 63 90 4.0 6.0 0.00 0.00 0.00 24 1023.5
20181112230820 63 90 4.0 7.0 0.00 0.00 0.00 25 1023.2
20181112225825 63 97 5.0 7.0 0.00 0.00 0.00 24 1023.2
20181112224806 63 91 6.0 7.0 0.00 0.00 0.00 24 1023.4
20181112223810 63 109 4.0 7.0 0.00 0.00 0.00 24 1023.5
20181112222810 63 117 3.0 8.0 0.00 0.00 0.00 23 1023.4
20181112221815 63 93 5.0 11.0 0.00 0.00 0.00 23 1023.1
20181112220816 63 84 6.0 9.0 0.00 0.00 0.00 22 1023.2
20181112220056 63 73 6.0 10.0 0.00 0.00 0.00 22 1023.3
20181112214903 62 74 5.0 9.0 0.00 0.00 0.00 21 1023.3
20181112213906 62 71 3.0 7.0 0.00 0.00 0.00 22 1023.6
20181112212921 61 77 5.0 8.0 0.00 0.00 0.00 23 1023.5
20181112212402 61 62 5.0 9.0 0.00 0.00 0.00 23 1023.5
20181112211416 61 72 6.0 13.0 0.00 0.00 0.00 22 1023.5
20181112210914 61 70 9.0 13.0 0.00 0.00 0.00 22 1023.3
20181112210159 61 59 8.0 12.0 0.00 0.00 0.00 22 1023.4
20181112205402 60 60 8.0 13.0 0.00 0.00 0.00 22 1023.5
20181112204412 60 72 7.0 12.0 0.00 0.00 0.00 23 1023.5
20181112203908 60 68 7.0 14.0 0.00 0.00 0.00 23 1023.5
20181112203124 59 55 9.0 13.0 0.00 0.00 0.00 23 1023.8
20181112202412 59 75 7.0 13.0 0.00 0.00 0.00 25 1023.9
20181112201858 59 68 9.0 14.0 0.00 0.00 0.00 24 1023.9
20181112200903 59 76 11.0 15.0 0.00 0.00 0.00 27 1023.8
20181112195918 58 74 10.0 16.0 0.00 0.00 0.00 31 1023.9
20181112195408 57 73 11.0 16.0 0.00 0.00 0.00 30 1024.1
20181112194421 56 110 6.0 11.0 0.00 0.00 0.00 36 1024.4
20181112193920 56 93 8.0 11.0 0.00 0.00 0.00 37 1024.3
20181112193057 55 72 7.0 12.0 0.00 0.00 0.00 41 1024.3
20181112192359 55 95 6.0 12.0 0.00 0.00 0.00 41 1024.5
20181112191412 54 74 8.0 13.0 0.00 0.00 0.00 43 1024.4
20181112190910 53 89 9.0 13.0 0.00 0.00 0.00 43 1024.3
20181112185928 53 76 8.0 12.0 0.00 0.00 0.00 42 1024.3
20181112185358 53 87 5.0 10.0 0.00 0.00 0.00 42 1024.5
20181112184409 52 87 7.0 11.0 0.00 0.00 0.00 42 1024.5
20181112183905 52 79 7.0 11.0 0.00 0.00 0.00 42 1024.7
20181112182916 51 108 7.0 15.0 0.00 0.00 0.00 44 1024.6
20181112182414 50 88 7.0 15.0 0.00 0.00 0.00 43 1024.6
20181112181859 50 103 8.0 16.0 0.00 0.00 0.00 45 1024.5
20181112180412 49 80 10.0 17.0 0.00 0.00 0.00 46 1024.3
20181112175358 49 86 12.0 15.0 0.00 0.00 0.00 48 1023.9
20181112174410 49 91 10.0 14.0 0.00 0.00 0.00 47 1024.0
20181112173411 49 93 10.0 14.0 0.00 0.00 0.00 48 1024.0
20181112172444 48 97 9.0 14.0 0.00 0.00 0.00 47 1024.2
20181112171901 48 92 8.0 14.0 0.00 0.00 0.00 45 1024.1
20181112170907 48 91 6.0 12.0 0.00 0.00 0.00 44 1024.1
20181112165929 46 84 10.0 13.0 0.00 0.00 0.00 50 1024.0
20181112165358 47 79 11.0 14.0 0.00 0.00 0.00 49 1023.9
20181112164401 47 77 8.0 13.0 0.00 0.00 0.00 46 1023.9
20181112163903 47 76 8.0 13.0 0.00 0.00 0.00 46 1023.9
20181112162915 48 61 11.0 19.0 0.00 0.00 0.00 43 1023.7
20181112161913 48 66 10.0 14.0 0.00 0.00 0.00 44 1023.7
20181112160857 47 40 8.0 11.0 0.00 0.00 0.00 44 1023.7
20181112155918 47 60 5.0 10.0 0.00 0.00 0.00 44 1023.9
20181112155411 47 63 6.0 10.0 0.00 0.00 0.00 45 1023.9
20181112154423 47 57 5.0 7.0 0.00 0.00 0.00 44 1023.8
20181112153900 47 48 4.0 7.0 0.00 0.00 0.00 43 1023.7
20181112152913 47 57 5.0 9.0 0.00 0.00 0.00 43 1023.4
20181112152407 47 58 7.0 12.0 0.00 0.00 0.00 43 1023.4
20181112151426 47 58 7.0 10.0 0.00 0.00 0.00 44 1023.3
20181112150915 47 74 7.0 10.0 0.00 0.00 0.00 44 1023.2
20181112145902 47 48 6.0 9.0 0.00 0.00 0.00 44 1023.2
20181112145401 47 48 4.0 7.0 0.00 0.00 0.00 44 1023.0
20181112144412 47 60 5.0 9.0 0.00 0.00 0.00 44 1023.0
20181112143907 47 50 7.0 9.0 0.00 0.00 0.00 43 1023.0
20181112142923 47 67 6.0 9.0 0.00 0.00 0.00 44 1022.8
20181112142400 47 65 7.0 11.0 0.00 0.00 0.00 44 1022.8
20181112141411 47 74 8.0 11.0 0.00 0.00 0.00 44 1022.7
20181112140907 47 81 9.0 11.0 0.00 0.00 0.00 43 1022.7
20181112140118 47 86 7.0 10.0 0.00 0.00 0.00 44 1022.6
20181112135409 47 81 6.0 12.0 0.00 0.00 0.00 44 1022.5
20181112134904 47 83 6.0 12.0 0.00 0.00 0.00 44 1022.6
20181112133915 48 87 7.0 11.0 0.00 0.00 0.00 43 1022.4
20181112132908 48 73 7.0 10.0 0.00 0.00 0.00 43 1022.4
20181112132405 48 75 6.0 13.0 0.00 0.00 0.00 43 1022.4
20181112131410 47 76 7.0 14.0 0.00 0.00 0.00 43 1022.3
20181112130414 47 66 7.0 10.0 0.00 0.00 0.00 46 1022.4
20181112125900 47 79 7.0 10.0 0.00 0.00 0.00 45 1022.4
20181112125357 47 88 6.0 10.0 0.00 0.00 0.00 45 1022.4
20181112124414 47 85 5.0 12.0 0.00 0.00 0.00 44 1022.2
20181112123912 48 74 8.0 13.0 0.00 0.00 0.00 42 1022.2
20181112122924 47 69 8.0 11.0 0.00 0.00 0.00 43 1022.0
20181112121858 48 74 9.0 15.0 0.00 0.00 0.00 45 1022.0
20181112120907 49 80 11.0 13.0 0.00 0.00 0.00 44 1021.8
20181112115916 49 72 12.0 16.0 0.00 0.00 0.00 47 1021.8
20181112115416 49 73 13.0 16.0 0.00 0.00 0.00 47 1021.8
20181112114420 49 69 10.0 12.0 0.00 0.00 0.00 48 1021.8
20181112113855 49 75 8.0 11.0 0.00 0.00 0.00 48 1021.9
20181112112912 49 70 7.0 11.0 0.00 0.00 0.00 47 1021.8
20181112111907 49 85 9.0 14.0 0.00 0.00 0.00 43 1021.7
20181112110922 50 87 10.0 15.0 0.00 0.00 0.00 41 1021.5
20181112105906 49 64 10.0 15.0 0.00 0.00 0.00 40 1021.6
20181112105400 49 87 12.0 17.0 0.00 0.00 0.00 41 1021.6
20181112104416 49 67 12.0 16.0 0.00 0.00 0.00 42 1021.5
20181112103908 48 89 9.0 16.0 0.00 0.00 0.00 38 1021.7
20181112103148 48 100 7.0 15.0 0.00 0.00 0.00 38 1021.8
20181112102414 48 87 6.0 15.0 0.00 0.00 0.00 37 1021.8
20181112101422 49 86 6.0 10.0 0.00 0.00 0.00 34 1021.7
20181112100915 50 96 5.0 10.0 0.00 0.00 0.00 33 1021.7
20181112095908 51 72 8.0 10.0 0.00 0.00 0.00 33 1021.6
20181112095402 51 66 5.0 10.0 0.00 0.00 0.00 32 1021.6
20181112094416 52 58 6.0 10.0 0.00 0.00 0.00 31 1021.1
20181112093913 52 55 6.0 10.0 0.00 0.00 0.00 31 1021.0
20181112092907 53 100 6.0 10.0 0.00 0.00 0.00 33 1021.0
20181112092357 54 95 7.0 11.0 0.00 0.00 0.00 30 1020.9
20181112091407 56 74 6.0 11.0 0.00 0.00 0.00 28 1020.8
20181112090413 56 78 6.0 13.0 0.00 0.00 0.00 28 1020.9
20181112085908 56 68 4.0 8.0 0.00 0.00 0.00 29 1020.9
20181112085408 56 70 4.0 9.0 0.00 0.00 0.00 29 1020.9
20181112084416 57 74 6.0 11.0 0.00 0.00 0.00 28 1021.0
20181112083914 57 74 7.0 10.0 0.00 0.00 0.00 28 1021.1
20181112082925 58 60 6.0 10.0 0.00 0.00 0.00 29 1021.0
20181112081900 58 60 7.0 12.0 0.00 0.00 0.00 28 1021.1
20181112080906 58 53 5.0 9.0 0.00 0.00 0.00 28 1021.0
20181112080328 59 77 7.0 9.0 0.00 0.00 0.00 27 1020.8
20181112075416 59 81 6.0 8.0 0.00 0.00 0.00 27 1020.9
20181112074400 59 91 6.0 10.0 0.00 0.00 0.00 26 1020.9
20181112073902 59 105 5.0 7.0 0.00 0.00 0.00 27 1020.8
20181112072918 59 100 4.0 6.0 0.00 0.00 0.00 25 1020.7
20181112072416 59 118 2.0 5.0 0.00 0.00 0.00 28 1020.7
20181112071422 58 124 3.0 5.0 0.00 0.00 0.00 29 1020.7
20181112070919 59 136 3.0 7.0 0.00 0.00 0.00 28 1020.6
20181112065910 59 131 3.0 5.0 0.00 0.00 0.00 29 1020.5
20181112065404 59 121 4.0 8.0 0.00 0.00 0.00 28 1020.3
20181112064420 60 105 7.0 9.0 0.00 0.00 0.00 25 1020.2
20181112063917 60 105 6.0 8.0 0.00 0.00 0.00 26 1020.3
20181112062407 58 153 5.0 8.0 0.00 0.00 0.00 31 1020.1
20181112061410 59 119 7.0 9.0 0.00 0.00 0.00 28 1020.0
20181112060909 59 113 6.0 10.0 0.00 0.00 0.00 28 1020.0
20181112060215 59 102 9.0 10.0 0.00 0.00 0.00 28 1019.8
20181112055417 60 102 9.0 10.0 0.00 0.00 0.00 29 1019.8
20181112054858 59 117 7.0 10.0 0.00 0.00 0.00 28 1019.9
20181112053903 58 120 5.0 7.0 0.00 0.00 0.00 32 1019.9
20181112053151 58 129 4.0 9.0 0.00 0.00 0.00 32 1019.8
20181112051913 59 99 8.0 9.0 0.00 0.00 0.00 31 1019.7
20181112050916 59 81 8.0 9.0 0.00 0.00 0.00 31 1019.6
20181112050135 59 93 7.0 8.0 0.00 0.00 0.00 31 1019.6
20181112045354 60 93 6.0 8.0 0.00 0.00 0.00 30 1019.5
20181112044406 60 95 7.0 8.0 0.00 0.00 0.00 28 1019.2
20181112043900 59 101 7.0 8.0 0.00 0.00 0.00 31 1019.1
20181112043110 59 101 6.0 8.0 0.00 0.00 0.00 33 1019.1
20181112041920 57 101 4.0 7.0 0.00 0.00 0.00 36 1019.1
20181112041409 58 76 3.0 7.0 0.00 0.00 0.00 35 1019.1
20181112040909 57 83 3.0 7.0 0.00 0.00 0.00 36 1019.1
20181112040123 57 108 3.0 5.0 0.00 0.00 0.00 38 1019.0
20181112035418 57 100 4.0 5.0 0.00 0.00 0.00 37 1018.8
20181112034644 57 79 5.0 7.0 0.00 0.00 0.00 37 1018.8
20181112033859 57 83 4.0 6.0 0.00 0.00 0.00 37 1018.8
20181112032910 57 72 3.0 4.0 0.00 0.00 0.00 37 1018.5
20181112032402 57 67 3.0 5.0 0.00 0.00 0.00 37 1018.5
20181112031412 57 74 5.0 8.0 0.00 0.00 0.00 37 1018.5
20181112030910 57 65 5.0 7.0 0.00 0.00 0.00 37 1018.4
20181112030339 57 69 4.0 6.0 0.00 0.00 0.00 37 1018.6
20181112025418 57 62 4.0 6.0 0.00 0.00 0.00 39 1018.4
20181112024901 58 63 4.0 7.0 0.00 0.00 0.00 39 1018.4
20181112023907 58 91 6.0 9.0 0.00 0.00 0.00 39 1018.4
20181112022920 58 89 7.0 9.0 0.00 0.00 0.00 40 1018.1
20181112022415 58 90 8.0 9.0 0.00 0.00 0.00 40 1018.1
20181112021405 59 93 6.0 10.0 0.00 0.00 0.00 41 1018.1
20181112020900 59 103 7.0 10.0 0.00 0.00 0.00 40 1017.9
20181112015916 60 96 8.0 12.0 0.00 0.00 0.00 38 1017.9
20181112015404 60 95 9.0 11.0 0.00 0.00 0.00 35 1018.0
20181112014410 61 110 6.0 11.0 0.00 0.00 0.00 30 1017.9
20181112013911 61 96 7.0 11.0 0.00 0.00 0.00 30 1017.9
20181112012924 61 91 8.0 10.0 0.00 0.00 0.00 30 1017.7
20181112011900 61 91 8.0 15.0 0.00 0.00 0.00 27 1017.8
20181112010904 62 88 10.0 15.0 0.00 0.00 0.00 25 1017.5
20181112005919 62 75 12.0 19.0 0.00 0.00 0.00 23 1017.5
20181112005418 63 68 15.0 19.0 0.00 0.00 0.00 21 1017.4
20181112004857 63 74 15.0 22.0 0.00 0.00 0.00 21 1017.3
20181112003903 63 55 14.0 19.0 0.00 0.00 0.00 21 1017.7
20181112002907 63 70 14.0 18.0 0.00 0.00 0.00 22 1017.6
20181112001907 64 65 15.0 18.0 0.00 0.00 0.00 21 1017.7
20181112000916 64 48 14.0 18.0 0.00 0.00 0.00 20 1017.8
20181111235912 64 55 15.0 23.0 0.00 0.00 0.00 22 1017.8
20181111234907 64 50 17.0 24.0 0.00 0.00 0.00 21 1017.5
20181111233912 64 47 21.0 25.0 0.00 0.00 0.00 21 1017.1
20181111232924 65 60 21.0 25.0 0.00 0.00 0.00 19 1017.3
20181111231919 65 76 18.0 25.0 0.00 0.00 0.00 21 1017.3
20181111231410 65 57 20.0 26.0 0.00 0.00 0.00 20 1017.2
20181111230904 65 64 20.0 27.0 0.00 0.00 0.00 20 1017.1
20181111225926 66 63 22.0 29.0 0.00 0.00 0.00 19 1016.9
20181111225419 66 59 23.0 29.0 0.00 0.00 0.00 18 1016.8
20181111224401 66 58 20.0 26.0 0.00 0.00 0.00 18 1016.9
20181111223902 66 62 21.0 26.0 0.00 0.00 0.00 17 1016.9
20181111223138 66 58 20.0 25.0 0.00 0.00 0.00 18 1016.8
20181111221910 66 57 22.0 27.0 0.00 0.00 0.00 17 1016.4
20181111220916 67 68 21.0 28.0 0.00 0.00 0.00 15 1016.5
20181111215925 67 62 26.0 35.0 0.00 0.00 0.00 13 1016.2
20181111215401 67 57 26.0 35.0 0.00 0.00 0.00 14 1016.2
20181111214416 67 42 23.0 29.0 0.00 0.00 0.00 13 1016.4
20181111213916 67 51 25.0 35.0 0.00 0.00 0.00 12 1016.3
20181111212908 67 50 29.0 39.0 0.00 0.00 0.00 12 1016.5
20181111212400 66 69 18.0 25.0 0.00 0.00 0.00 13 1017.2
20181111211416 66 72 20.0 29.0 0.00 0.00 0.00 17 1017.1
20181111210914 66 53 23.0 29.0 0.00 0.00 0.00 15 1016.9
20181111210151 65 63 24.0 29.0 0.00 0.00 0.00 15 1017.0
20181111205356 66 53 24.0 29.0 0.00 0.00 0.00 16 1016.8
20181111204408 66 49 23.0 32.0 0.00 0.00 0.00 13 1016.6
20181111203415 66 48 29.0 34.0 0.00 0.00 0.00 14 1016.3
20181111202909 66 44 27.0 32.0 0.00 0.00 0.00 13 1016.6
20181111202357 66 38 26.0 33.0 0.00 0.00 0.00 13 1016.9
20181111201404 65 43 31.0 37.0 0.00 0.00 0.00 13 1016.3
20181111195922 65 52 34.0 38.0 0.00 0.00 0.00 14 1016.1
20181111195415 65 46 28.0 35.0 0.00 0.00 0.00 16 1016.4
20181111194856 65 55 26.0 35.0 0.00 0.00 0.00 17 1016.4
20181111193905 65 41 27.0 33.0 0.00 0.00 0.00 15 1016.4
20181111193145 65 53 23.0 26.0 0.00 0.00 0.00 16 1016.9
20181111191918 65 46 4.0 11.0 0.00 0.00 0.00 16 1017.3
20181111190902 64 55 13.0 21.0 0.00 0.00 0.00 18 1017.2
20181111185923 64 50 13.0 17.0 0.00 0.00 0.00 17 1017.2
20181111185415 64 58 9.0 13.0 0.00 0.00 0.00 17 1017.4
20181111184400 64 48 8.0 12.0 0.00 0.00 0.00 17 1017.6
20181111183858 64 67 7.0 11.0 0.00 0.00 0.00 17 1017.5
20181111183134 63 28 7.0 12.0 0.00 0.00 0.00 16 1017.4
20181111182406 63 27 10.0 12.0 0.00 0.00 0.00 17 1017.3
20181111181419 63 16 7.0 12.0 0.00 0.00 0.00 17 1017.7
20181111180914 62 72 7.0 13.0 0.00 0.00 0.00 18 1017.6
20181111175903 62 22 11.0 18.0 0.00 0.00 0.00 17 1017.6
20181111174904 62 29 12.0 15.0 0.00 0.00 0.00 19 1017.4
20181111173910 61 27 11.0 15.0 0.00 0.00 0.00 19 1017.2
20181111172930 61 27 11.0 16.0 0.00 0.00 0.00 19 1017.0
20181111172417 61 12 10.0 16.0 0.00 0.00 0.00 19 1016.9
20181111171401 60 26 13.0 17.0 0.00 0.00 0.00 19 1017.0
20181111170902 60 349 11.0 19.0 0.00 0.00 0.00 19 1016.9
20181111165924 60 5 17.0 22.0 0.00 0.00 0.00 19 1016.6
20181111165357 60 22 19.0 22.0 0.00 0.00 0.00 20 1016.4
20181111164357 60 12 20.0 25.0 0.00 0.00 0.00 20 1016.1
20181111163855 59 19 23.0 25.0 0.00 0.00 0.00 19 1015.8
20181111162915 59 13 20.0 23.0 0.00 0.00 0.00 20 1016.1
20181111162407 59 5 18.0 21.0 0.00 0.00 0.00 19 1016.2
20181111161423 59 352 15.0 18.0 0.00 0.00 0.00 19 1016.4
20181111160856 59 19 12.0 18.0 0.00 0.00 0.00 19 1016.4
20181111155916 59 18 16.0 18.0 0.00 0.00 0.00 19 1016.5
20181111155402 59 357 13.0 21.0 0.00 0.00 0.00 19 1016.3
20181111154413 59 14 16.0 19.0 0.00 0.00 0.00 18 1016.3
20181111153911 59 18 12.0 15.0 0.00 0.00 0.00 18 1016.2
20181111152902 59 354 13.0 17.0 0.00 0.00 0.00 18 1016.0
20181111152359 59 10 12.0 19.0 0.00 0.00 0.00 18 1015.9
20181111151413 59 6 16.0 22.0 0.00 0.00 0.00 18 1015.5
20181111150412 59 12 18.0 25.0 0.00 0.00 0.00 18 1015.3
20181111145352 59 17 20.0 28.0 0.00 0.00 0.00 18 1015.0
20181111144403 59 10 24.0 32.0 0.00 0.00 0.00 19 1014.7
20181111143900 58 22 25.0 30.0 0.00 0.00 0.00 19 1014.5
20181111142912 59 10 24.0 30.0 0.00 0.00 0.00 19 1014.6
20181111141913 58 10 23.0 28.0 0.00 0.00 0.00 19 1014.4
20181111141351 58 18 21.0 27.0 0.00 0.00 0.00 20 1014.5
20181111135915 58 10 19.0 28.0 0.00 0.00 0.00 20 1014.5
20181111135406 58 13 17.0 23.0 0.00 0.00 0.00 19 1014.6
20181111134415 58 346 16.0 22.0 0.00 0.00 0.00 20 1014.6
20181111133910 58 18 16.0 24.0 0.00 0.00 0.00 20 1014.6
20181111132907 58 23 15.0 18.0 0.00 0.00 0.00 20 1014.5
20181111132403 59 19 13.0 17.0 0.00 0.00 0.00 19 1014.7
20181111131421 59 1 11.0 18.0 0.00 0.00 0.00 20 1014.7
20181111125911 59 10 12.0 18.0 0.00 0.00 0.00 19 1014.7
20181111124911 59 17 14.0 19.0 0.00 0.00 0.00 19 1014.4
20181111123852 59 347 16.0 23.0 0.00 0.00 0.00 19 1014.2
20181111122917 58 8 16.0 21.0 0.00 0.00 0.00 22 1014.4
20181111121909 57 5 13.0 17.0 0.00 0.00 0.00 24 1014.3
20181111120854 57 333 12.0 17.0 0.00 0.00 0.00 23 1014.1
20181111115911 57 13 10.0 17.0 0.00 0.00 0.00 25 1014.2
20181111115403 57 328 8.0 15.0 0.00 0.00 0.00 25 1014.2
20181111114419 57 20 7.0 15.0 0.00 0.00 0.00 26 1014.2
20181111113859 57 342 9.0 15.0 0.00 0.00 0.00 28 1014.2
20181111112905 56 28 6.0 16.0 0.00 0.00 0.00 30 1014.2
20181111112359 57 21 9.0 20.0 0.00 0.00 0.00 29 1014.3
20181111111414 58 26 5.0 12.0 0.00 0.00 0.00 28 1014.2
20181111105857 58 17 12.0 16.0 0.00 0.00 0.00 26 1014.1
20181111104856 59 26 11.0 15.0 0.00 0.00 0.00 27 1014.3
20181111103904 59 22 10.0 13.0 0.00 0.00 0.00 26 1014.3
20181111103139 58 17 5.0 9.0 0.00 0.00 0.00 26 1014.3
20181111102355 58 13 3.0 9.0 0.00 0.00 0.00 26 1014.5
20181111101358 58 254 4.0 7.0 0.00 0.00 0.00 27 1014.4
20181111100858 58 240 2.0 5.0 0.00 0.00 0.00 27 1014.3
20181111095915 58 183 1.0 4.0 0.00 0.00 0.00 29 1014.2
20181111094911 58 96 0.0 3.0 0.00 0.00 0.00 28 1014.2
20181111094357 57 78 0.0 2.0 0.00 0.00 0.00 28 1014.2
20181111093359 58 212 1.0 2.0 0.00 0.00 0.00 29 1014.2
20181111092404 57 202 2.0 6.0 0.00 0.00 0.00 30 1014.2
20181111091413 57 56 3.0 7.0 0.00 0.00 0.00 32 1014.2
20181111090910 56 149 5.0 7.0 0.00 0.00 0.00 32 1014.1
20181111085907 57 143 4.0 8.0 0.00 0.00 0.00 32 1014.2
20181111084909 57 164 5.0 8.0 0.00 0.00 0.00 33 1014.0
20181111083855 57 98 4.0 7.0 0.00 0.00 0.00 31 1014.1
20181111083125 59 93 5.0 7.0 0.00 0.00 0.00 27 1014.1
20181111082406 60 90 6.0 7.0 0.00 0.00 0.00 26 1014.1
20181111081421 60 84 4.0 6.0 0.00 0.00 0.00 26 1014.0
20181111080905 61 90 3.0 5.0 0.00 0.00 0.00 25 1014.0
20181111075922 61 98 3.0 4.0 0.00 0.00 0.00 25 1013.7
20181111075401 61 107 2.0 5.0 0.00 0.00 0.00 25 1013.8
20181111074414 60 131 2.0 4.0 0.00 0.00 0.00 26 1013.9
20181111073412 60 76 1.0 2.0 0.00 0.00 0.00 25 1013.9
20181111072857 60 341 1.0 2.0 0.00 0.00 0.00 25 1013.9
20181111072355 60 297 0.0 2.0 0.00 0.00 0.00 26 1013.8
20181111071402 60 271 1.0 2.0 0.00 0.00 0.00 26 1013.7
20181111070859 60 264 1.0 3.0 0.00 0.00 0.00 26 1013.6
20181111070102 59 254 2.0 4.0 0.00 0.00 0.00 27 1013.6
20181111065408 60 264 3.0 4.0 0.00 0.00 0.00 27 1013.6
20181111064420 59 249 2.0 4.0 0.00 0.00 0.00 27 1013.5
20181111063913 59 280 3.0 4.0 0.00 0.00 0.00 28 1013.5
20181111062906 59 252 5.0 7.0 0.00 0.00 0.00 28 1013.5
20181111062400 58 256 4.0 6.0 0.00 0.00 0.00 28 1013.5
20181111061413 58 263 3.0 5.0 0.00 0.00 0.00 29 1013.5
20181111055907 58 259 4.0 5.0 0.00 0.00 0.00 29 1013.6
20181111055354 58 247 4.0 5.0 0.00 0.00 0.00 29 1013.4
20181111054407 58 211 2.0 4.0 0.00 0.00 0.00 30 1013.3
20181111053907 58 215 2.0 4.0 0.00 0.00 0.00 30 1013.4
20181111053140 58 192 2.0 3.0 0.00 0.00 0.00 30 1013.2
20181111052357 59 210 1.0 3.0 0.00 0.00 0.00 30 1013.1
20181111051406 59 225 2.0 3.0 0.00 0.00 0.00 29 1013.0
20181111050903 59 268 2.0 4.0 0.00 0.00 0.00 29 1013.0
20181111050153 59 266 2.0 6.0 0.00 0.00 0.00 29 1013.0
20181111044913 59 260 5.0 8.0 0.00 0.00 0.00 29 1012.7
20181111044357 59 254 3.0 6.0 0.00 0.00 0.00 29 1012.8
20181111043855 58 273 4.0 7.0 0.00 0.00 0.00 30 1012.8
20181111042905 58 232 3.0 4.0 0.00 0.00 0.00 30 1012.7
20181111041417 58 226 0.0 1.0 0.00 0.00 0.00 29 1012.8
20181111040851 58 226 0.0 1.0 0.00 0.00 0.00 28 1012.8
20181111035901 58 226 0.0 2.0 0.00 0.00 0.00 29 1012.6
20181111034904 58 213 1.0 2.0 0.00 0.00 0.00 29 1012.8
20181111033909 58 208 0.0 1.0 0.00 0.00 0.00 30 1012.7
20181111032908 58 169 0.0 0.0 0.00 0.00 0.00 29 1012.6
20181111032400 58 169 0.0 1.0 0.00 0.00 0.00 29 1012.6
20181111031416 58 169 1.0 1.0 0.00 0.00 0.00 29 1012.7
20181111030914 58 169 0.0 2.0 0.00 0.00 0.00 29 1012.8
20181111025858 58 169 2.0 3.0 0.00 0.00 0.00 29 1012.8
20181111024900 58 186 2.0 3.0 0.00 0.00 0.00 29 1012.8
20181111023909 58 186 3.0 3.0 0.00 0.00 0.00 29 1012.7
20181111023154 58 188 2.0 3.0 0.00 0.00 0.00 29 1012.7
20181111022409 57 165 2.0 2.0 0.00 0.00 0.00 30 1012.6
20181111021354 58 165 1.0 2.0 0.00 0.00 0.00 29 1012.6
20181111020842 58 165 1.0 2.0 0.00 0.00 0.00 30 1012.4
20181111015847 58 134 2.0 2.0 0.00 0.00 0.00 29 1012.4
20181111014852 58 126 2.0 3.0 0.00 0.00 0.00 29 1012.4
20181111013842 58 137 2.0 3.0 0.00 0.00 0.00 30 1012.3
20181111012850 58 157 3.0 3.0 0.00 0.00 0.00 30 1012.4
20181111011837 58 162 2.0 3.0 0.00 0.00 0.00 31 1012.4
20181111010837 58 193 2.0 3.0 0.00 0.00 0.00 32 1012.4
20181111005839 58 129 0.0 0.0 0.00 0.00 0.00 31 1012.7
20181111004846 58 87 0.0 0.0 0.00 0.00 0.00 31 1012.7
20181111003852 59 86 0.0 1.0 0.00 0.00 0.00 30 1012.5
20181111002841 59 86 1.0 4.0 0.00 0.00 0.00 29 1012.7
20181111002344 60 104 2.0 4.0 0.00 0.00 0.00 29 1012.7
20181111001351 60 135 3.0 7.0 0.00 0.00 0.00 27 1012.6
20181111000356 60 126 4.0 6.0 0.00 0.00 0.00 29 1012.6
20181110235336 60 123 5.0 8.0 0.00 0.00 0.00 28 1012.5
20181110234342 60 105 6.0 8.0 0.00 0.00 0.00 28 1012.7
20181110233352 60 117 4.0 5.0 0.00 0.00 0.00 28 1012.8
20181110232839 60 126 3.0 5.0 0.00 0.00 0.00 28 1012.9
20181110231842 60 113 3.0 5.0 0.00 0.00 0.00 29 1013.0
20181110230848 60 127 3.0 5.0 0.00 0.00 0.00 28 1013.0
20181110225833 60 99 3.0 5.0 0.00 0.00 0.00 28 1013.0
20181110224839 60 109 4.0 6.0 0.00 0.00 0.00 27 1013.3
20181110223849 60 86 3.0 6.0 0.00 0.00 0.00 27 1012.9
20181110222905 59 117 3.0 5.0 0.00 0.00 0.00 28 1013.2
20181110221338 59 80 4.0 9.0 0.00 0.00 0.00 28 1013.3
20181110220342 59 76 6.0 9.0 0.00 0.00 0.00 28 1013.3
20181110215349 58 115 4.0 8.0 0.00 0.00 0.00 29 1013.5
20181110213837 57 100 2.0 6.0 0.00 0.00 0.00 32 1013.7
20181110212838 57 108 3.0 6.0 0.00 0.00 0.00 31 1013.8
20181110211839 56 95 2.0 6.0 0.00 0.00 0.00 32 1014.0
20181110210844 57 68 3.0 6.0 0.00 0.00 0.00 30 1014.0
20181110205852 56 131 3.0 6.0 0.00 0.00 0.00 30 1014.0
20181110204851 56 112 3.0 6.0 0.00 0.00 0.00 31 1014.2
20181110204334 55 145 3.0 6.0 0.00 0.00 0.00 32 1014.4
20181110203335 53 111 1.0 4.0 0.00 0.00 0.00 35 1014.4
20181110202337 53 49 2.0 6.0 0.00 0.00 0.00 35 1014.7
20181110201341 52 56 4.0 8.0 0.00 0.00 0.00 34 1014.7
20181110200347 52 86 3.0 6.0 0.00 0.00 0.00 34 1014.7
20181110195351 52 95 2.0 5.0 0.00 0.00 0.00 34 1014.7
20181110194333 50 117 5.0 7.0 0.00 0.00 0.00 35 1015.0
20181110193344 50 86 6.0 8.0 0.00 0.00 0.00 34 1015.3
20181110192350 51 107 6.0 7.0 0.00 0.00 0.00 32 1015.3
20181110191355 51 131 4.0 7.0 0.00 0.00 0.00 39 1015.4
20181110185843 50 84 5.0 9.0 0.00 0.00 0.00 40 1015.8
20181110184857 50 121 1.0 3.0 0.00 0.00 0.00 37 1015.9
20181110183835 50 114 0.0 4.0 0.00 0.00 0.00 37 1015.8
20181110182843 49 74 2.0 4.0 0.00 0.00 0.00 43 1015.7
20181110182340 50 124 2.0 4.0 0.00 0.00 0.00 32 1015.7
20181110180937 50 102 1.0 4.0 0.00 0.00 0.00 32 1016.0
20181110175832 50 114 1.0 3.0 0.00 0.00 0.00 33 1015.8
20181110174834 49 116 2.0 5.0 0.00 0.00 0.00 32 1015.7
20181110174314 49 86 2.0 5.0 0.00 0.00 0.00 33 1015.7
20181110173318 49 112 1.0 5.0 0.00 0.00 0.00 35 1015.8
20181110172817 48 119 1.0 5.0 0.00 0.00 0.00 34 1015.8
20181110171819 48 94 2.0 4.0 0.00 0.00 0.00 37 1015.7
20181110170825 48 110 2.0 3.0 0.00 0.00 0.00 37 1015.7
20181110165826 48 89 2.0 4.0 0.00 0.00 0.00 36 1015.7
20181110164829 48 82 2.0 8.0 0.00 0.00 0.00 35 1015.5
20181110163834 48 65 4.0 8.0 0.00 0.00 0.00 36 1015.6
20181110162837 49 68 5.0 11.0 0.00 0.00 0.00 32 1015.6
20181110161816 49 101 2.0 10.0 0.00 0.00 0.00 32 1015.5
20181110160818 48 69 4.0 7.0 0.00 0.00 0.00 33 1015.4
20181110155824 48 104 4.0 6.0 0.00 0.00 0.00 34 1015.3
20181110154829 48 117 4.0 5.0 0.00 0.00 0.00 33 1015.2
20181110153831 48 116 4.0 5.0 0.00 0.00 0.00 34 1015.2
20181110152836 49 107 3.0 7.0 0.00 0.00 0.00 32 1015.0
20181110151837 50 89 4.0 9.0 0.00 0.00 0.00 31 1014.9
20181110150816 50 102 7.0 11.0 0.00 0.00 0.00 30 1014.8
20181110145820 50 83 7.0 10.0 0.00 0.00 0.00 32 1014.8
20181110144820 49 101 6.0 8.0 0.00 0.00 0.00 32 1014.9
20181110143825 49 80 4.0 6.0 0.00 0.00 0.00 33 1015.2
20181110142829 49 88 4.0 5.0 0.00 0.00 0.00 34 1015.2
20181110141833 48 66 2.0 5.0 0.00 0.00 0.00 36 1015.2
20181110141320 49 76 2.0 3.0 0.00 0.00 0.00 35 1015.1
20181110140322 48 77 1.0 2.0 0.00 0.00 0.00 34 1015.1
20181110135330 48 76 1.0 5.0 0.00 0.00 0.00 35 1015.1
20181110134333 47 76 3.0 5.0 0.00 0.00 0.00 35 1015.0
20181110133331 46 103 3.0 5.0 0.00 0.00 0.00 43 1015.0
20181110132333 47 98 3.0 6.0 0.00 0.00 0.00 46 1014.9
20181110131816 47 99 5.0 6.0 0.00 0.00 0.00 44 1015.0
20181110131314 47 96 5.0 6.0 0.00 0.00 0.00 43 1014.9
20181110130320 48 121 4.0 6.0 0.00 0.00 0.00 42 1014.7
20181110125325 48 110 5.0 6.0 0.00 0.00 0.00 38 1014.5
20181110124325 49 139 5.0 8.0 0.00 0.00 0.00 34 1014.5
20181110123329 49 155 7.0 8.0 0.00 0.00 0.00 36 1014.4
20181110122332 50 145 4.0 6.0 0.00 0.00 0.00 36 1014.6
20181110121334 51 114 3.0 4.0 0.00 0.00 0.00 31 1014.8
20181110120322 51 84 3.0 5.0 0.00 0.00 0.00 28 1014.7
20181110115326 51 105 3.0 4.0 0.00 0.00 0.00 27 1014.7
20181110114327 52 88 3.0 4.0 0.00 0.00 0.00 27 1014.9
20181110113333 52 76 3.0 4.0 0.00 0.00 0.00 27 1015.0
20181110112816 52 79 3.0 5.0 0.00 0.00 0.00 26 1015.0
20181110111820 52 96 3.0 5.0 0.00 0.00 0.00 27 1015.0
20181110110825 52 91 3.0 5.0 0.00 0.00 0.00 26 1015.1
20181110110132 50 84 1.0 5.0 0.00 0.00 0.00 29 1015.2
20181110105325 50 64 2.0 5.0 0.00 0.00 0.00 31 1015.5
20181110103814 51 120 4.0 6.0 0.00 0.00 0.00 28 1015.4
20181110102818 51 135 4.0 5.0 0.00 0.00 0.00 29 1015.3
20181110101958 52 94 4.0 6.0 0.00 0.00 0.00 27 1015.5
20181110100822 53 101 3.0 4.0 0.00 0.00 0.00 28 1015.5
20181110095827 53 122 3.0 6.0 0.00 0.00 0.00 29 1015.5
20181110094828 54 99 4.0 7.0 0.00 0.00 0.00 27 1015.7
20181110093830 54 79 5.0 7.0 0.00 0.00 0.00 26 1015.7
20181110093319 53 84 5.0 7.0 0.00 0.00 0.00 27 1015.8
20181110092337 51 112 5.0 7.0 0.00 0.00 0.00 33 1016.0
20181110091318 51 56 3.0 6.0 0.00 0.00 0.00 37 1016.3
20181110090328 50 17 4.0 7.0 0.00 0.00 0.00 42 1016.3
20181110085330 50 328 3.0 6.0 0.00 0.00 0.00 46 1016.2
20181110084333 50 325 3.0 5.0 0.00 0.00 0.00 39 1016.2
20181110083323 51 328 2.0 4.0 0.00 0.00 0.00 45 1016.1
20181110082819 51 320 3.0 5.0 0.00 0.00 0.00 40 1016.0
20181110081819 51 304 5.0 6.0 0.00 0.00 0.00 29 1016.0
20181110080829 52 301 4.0 6.0 0.00 0.00 0.00 31 1016.0
20181110075849 53 279 1.0 3.0 0.00 0.00 0.00 31 1015.8
20181110075319 53 275 2.0 3.0 0.00 0.00 0.00 30 1016.0
20181110074337 53 304 2.0 5.0 0.00 0.00 0.00 30 1016.0
20181110073835 53 304 2.0 5.0 0.00 0.00 0.00 30 1015.9
20181110073031 0 0.0 0.0 0.00 0.00 0.00 1016.0
20181110071908 0 0.0 0.0 0.00 0.00 0.00 1015.9
20181110070908 0 0.0 0.0 0.00 0.00 0.00 1016.1
20181110065918 0 0.0 0.0 0.00 0.00 0.00 1016.1
20181110064857 0 0.0 0.0 0.00 0.00 0.00 1016.1
20181110063901 0 0.0 0.0 0.00 0.00 0.00 1016.1
20181110062914 0 0.0 0.0 0.00 0.00 0.00 1016.2
20181110062407 0 0.0 0.0 0.00 0.00 0.00 1016.1
20181110061900 0 0.0 0.0 0.00 0.00 0.00 1016.2
20181110060906 0 0.0 0.0 0.00 0.00 0.00 1016.1
20181110055922 0 0.0 0.0 0.00 0.00 0.00 1016.2
20181110055414 0 0.0 0.0 0.00 0.00 0.00 1016.2
20181110054415 0 0.0 0.0 0.00 0.00 0.00 1016.2
20181110053853 0 0.0 0.0 0.00 0.00 0.00 1016.1
20181110052912 0 0.0 0.0 0.00 0.00 0.00 1016.1
20181110052406 0 0.0 0.0 0.00 0.00 0.00 1016.1
20181110051417 0 0.0 0.0 0.00 0.00 0.00 1016.1
20181110050912 0 0.0 0.0 0.00 0.00 0.00 1016.1
20181110050355 0 0.0 0.0 0.00 0.00 0.00 1016.1
20181110044855 0 0.0 0.0 0.00 0.00 0.00 1016.0
20181110043858 0 0.0 0.0 0.00 0.00 0.00 1015.9
20181110042903 0 0.0 0.0 0.00 0.00 0.00 1015.9
20181110042404 0 0.0 0.0 0.00 0.00 0.00 1015.9
20181110041402 0 0.0 0.0 0.00 0.00 0.00 1015.8
20181110040900 0 0.0 0.0 0.00 0.00 0.00 1015.9
20181110040401 0 0.0 0.0 0.00 0.00 0.00 1016.0
20181110035406 0 0.0 0.0 0.00 0.00 0.00 1016.0
20181110034416 0 0.0 0.0 0.00 0.00 0.00 1016.0
20181110033357 0 0.0 0.0 0.00 0.00 0.00 1016.1
20181110031902 0 0.0 0.0 0.00 0.00 0.00 1016.0
20181110031402 0 0.0 0.0 0.00 0.00 0.00 1016.0
20181110030401 0 0.0 0.0 0.00 0.00 0.00 1016.1
20181110025402 0 0.0 0.0 0.00 0.00 0.00 1016.2
20181110024411 0 0.0 0.0 0.00 0.00 0.00 1016.2
20181110023908 0 0.0 0.0 0.00 0.00 0.00 1016.1
20181110023137 0 0.0 0.0 0.00 0.00 0.00 1016.1
20181110021911 0 0.0 0.0 0.00 0.00 0.00 1015.9
20181110020856 0 0.0 0.0 0.00 0.00 0.00 1015.9
20181110020354 0 0.0 0.0 0.00 0.00 0.00 1015.9
20181110015359 0 0.0 0.0 0.00 0.00 0.00 1015.7
20181110014855 0 0.0 0.0 0.00 0.00 0.00 1015.7
20181110013855 0 0.0 0.0 0.00 0.00 0.00 1015.7
20181110012859 0 0.0 0.0 0.00 0.00 0.00 1015.6
20181110012354 0 0.0 0.0 0.00 0.00 0.00 1015.5
20181110011355 0 0.0 0.0 0.00 0.00 0.00 1015.7
20181110010856 0 0.0 0.0 0.00 0.00 0.00 1015.6
20181110005903 0 0.0 0.0 0.00 0.00 0.00 1015.6
20181110005359 0 0.0 0.0 0.00 0.00 0.00 1015.7
20181110004412 0 0.0 0.0 0.00 0.00 0.00 1015.8
20181110003901 0 0.0 0.0 0.00 0.00 0.00 1015.8
20181110002925 0 0.0 0.0 0.00 0.00 0.00 1016.0
20181110001912 0 0.0 0.0 0.00 0.00 0.00 1016.0
20181110001410 0 0.0 0.0 0.00 0.00 0.00 1015.9
20181110000851 0 0.0 0.0 0.00 0.00 0.00 1016.1
20181109235912 0 0.0 0.0 0.00 0.00 0.00 1016.2
20181109234912 0 0.0 0.0 0.00 0.00 0.00 1016.3
20181109234353 0 0.0 0.0 0.00 0.00 0.00 1016.3
20181109233400 0 0.0 0.0 0.00 0.00 0.00 1016.3
20181109232436 60 159 2.0 3.0 0.00 0.00 0.00 19 1016.3
20181109231342 60 162 2.0 3.0 0.00 0.00 0.00 19 1016.4
20181109230825 60 153 2.0 3.0 0.00 0.00 0.00 19 1016.4
20181109225836 60 142 1.0 3.0 0.00 0.00 0.00 19 1016.6
20181109224846 60 178 2.0 3.0 0.00 0.00 0.00 19 1016.7
20181109223831 61 200 1.0 3.0 0.00 0.00 0.00 19 1016.8
20181109222831 60 176 3.0 4.0 0.00 0.00 0.00 20 1016.8
20181109222332 60 187 3.0 4.0 0.00 0.00 0.00 19 1016.9
20181109221334 60 154 2.0 4.0 0.00 0.00 0.00 19 1017.0
20181109220339 60 157 2.0 4.0 0.00 0.00 0.00 20 1017.1
20181109215342 59 109 3.0 5.0 0.00 0.00 0.00 20 1017.2
20181109214327 59 121 2.0 4.0 0.00 0.00 0.00 20 1017.4
20181109213333 59 121 3.0 4.0 0.00 0.00 0.00 20 1017.4
20181109212332 59 125 3.0 5.0 0.00 0.00 0.00 21 1017.5
20181109211335 59 107 2.0 5.0 0.00 0.00 0.00 21 1017.6
20181109210342 59 96 2.0 4.0 0.00 0.00 0.00 20 1017.8
20181109205838 59 159 2.0 4.0 0.00 0.00 0.00 21 1017.9
20181109204842 58 114 3.0 5.0 0.00 0.00 0.00 21 1018.0
20181109203846 58 114 2.0 4.0 0.00 0.00 0.00 22 1018.4
20181109202844 58 136 2.0 5.0 0.00 0.00 0.00 21 1018.5
20181109202325 58 81 2.0 5.0 0.00 0.00 0.00 23 1018.4
20181109201330 58 119 3.0 6.0 0.00 0.00 0.00 22 1018.6
20181109200329 58 121 2.0 4.0 0.00 0.00 0.00 21 1018.6
20181109195337 58 81 0.0 4.0 0.00 0.00 0.00 21 1018.7
20181109194341 57 105 2.0 4.0 0.00 0.00 0.00 24 1019.0
20181109193343 57 96 3.0 4.0 0.00 0.00 0.00 22 1019.0
20181109192344 56 128 3.0 6.0 0.00 0.00 0.00 24 1018.9
20181109191330 56 114 3.0 8.0 0.00 0.00 0.00 23 1019.1
20181109190337 56 105 3.0 8.0 0.00 0.00 0.00 23 1019.2
20181109185340 56 114 5.0 8.0 0.00 0.00 0.00 22 1019.2
20181109183338 55 112 5.0 8.0 0.00 0.00 0.00 24 1019.1
20181109182346 55 155 5.0 8.0 0.00 0.00 0.00 25 1019.3
20181109181326 54 136 6.0 8.0 0.00 0.00 0.00 27 1019.3
20181109180331 54 127 5.0 7.0 0.00 0.00 0.00 30 1019.2
20181109175333 54 122 5.0 7.0 0.00 0.00 0.00 29 1019.2
20181109174333 54 143 4.0 6.0 0.00 0.00 0.00 28 1019.1
20181109173339 54 115 4.0 7.0 0.00 0.00 0.00 29 1019.2
20181109172343 57 132 2.0 4.0 0.00 0.00 0.00 24 1019.2
20181109171327 57 116 1.0 4.0 0.00 0.00 0.00 21 1019.4
20181109170329 56 146 2.0 5.0 0.00 0.00 0.00 22 1019.4
20181109165331 56 152 4.0 5.0 0.00 0.00 0.00 23 1019.2
20181109164336 56 85 1.0 3.0 0.00 0.00 0.00 19 1019.3
20181109163345 57 62 1.0 2.0 0.00 0.00 0.00 19 1019.2
20181109162331 56 69 0.0 4.0 0.00 0.00 0.00 19 1019.0
20181109161342 56 70 3.0 4.0 0.00 0.00 0.00 18 1019.0
20181109160346 56 98 1.0 3.0 0.00 0.00 0.00 19 1018.9
20181109155326 56 131 1.0 4.0 0.00 0.00 0.00 21 1019.0
20181109154327 56 145 1.0 4.0 0.00 0.00 0.00 21 1018.9
20181109153333 55 171 3.0 5.0 0.00 0.00 0.00 20 1018.7
20181109152537 54 159 4.0 6.0 0.00 0.00 0.00 20 1018.5
20181109151357 55 145 4.0 6.0 0.00 0.00 0.00 20 1018.4
20181109150856 56 107 4.0 7.0 0.00 0.00 0.00 19 1018.4
20181109145914 56 98 3.0 7.0 0.00 0.00 0.00 18 1018.3
20181109145408 55 124 4.0 7.0 0.00 0.00 0.00 18 1018.3
20181109144358 56 129 3.0 5.0 0.00 0.00 0.00 17 1018.3
20181109143858 57 132 3.0 6.0 0.00 0.00 0.00 17 1018.2
20181109143100 56 136 5.0 6.0 0.00 0.00 0.00 18 1018.1
20181109142400 56 146 4.0 6.0 0.00 0.00 0.00 19 1018.3
20181109141426 57 112 4.0 7.0 0.00 0.00 0.00 18 1018.3
20181109140851 58 105 5.0 7.0 0.00 0.00 0.00 17 1018.1
20181109135904 57 123 5.0 5.0 0.00 0.00 0.00 18 1018.0
20181109135404 57 125 4.0 5.0 0.00 0.00 0.00 18 1018.1
20181109134413 56 154 4.0 5.0 0.00 0.00 0.00 20 1017.9
20181109133355 56 157 4.0 6.0 0.00 0.00 0.00 20 1017.9
20181109132359 55 158 5.0 7.0 0.00 0.00 0.00 21 1017.8
20181109131415 57 153 2.0 4.0 0.00 0.00 0.00 20 1018.0
20181109130909 57 87 1.0 5.0 0.00 0.00 0.00 20 1017.9
20181109125857 56 148 3.0 5.0 0.00 0.00 0.00 21 1017.9
20181109124904 57 78 2.0 5.0 0.00 0.00 0.00 20 1018.1
20181109123908 57 69 3.0 6.0 0.00 0.00 0.00 21 1017.9
20181109122913 58 117 2.0 6.0 0.00 0.00 0.00 19 1017.7
20181109122403 58 63 3.0 5.0 0.00 0.00 0.00 20 1017.7
20181109121415 59 63 3.0 6.0 0.00 0.00 0.00 18 1017.8
20181109120906 59 56 3.0 6.0 0.00 0.00 0.00 18 1017.8
20181109115916 58 73 3.0 6.0 0.00 0.00 0.00 19 1018.0
20181109115411 57 95 4.0 6.0 0.00 0.00 0.00 21 1017.8
20181109114420 56 100 2.0 6.0 0.00 0.00 0.00 21 1018.0
20181109113851 56 162 4.0 6.0 0.00 0.00 0.00 22 1018.1
20181109113105 56 133 5.0 7.0 0.00 0.00 0.00 22 1018.0
20181109112400 56 144 6.0 7.0 0.00 0.00 0.00 23 1017.8
20181109111528 57 153 5.0 7.0 0.00 0.00 0.00 24 1017.9
20181109110852 58 155 5.0 7.0 0.00 0.00 0.00 23 1017.9
20181109110333 58 95 4.0 6.0 0.00 0.00 0.00 20 1018.0
20181109105334 59 133 5.0 8.0 0.00 0.00 0.00 22 1018.1
20181109104341 59 79 7.0 9.0 0.00 0.00 0.00 17 1018.2
20181109103349 59 108 8.0 9.0 0.00 0.00 0.00 22 1018.2
20181109102352 60 109 6.0 7.0 0.00 0.00 0.00 19 1018.3
20181109101830 60 102 6.0 9.0 0.00 0.00 0.00 18 1018.2
20181109100835 61 120 5.0 7.0 0.00 0.00 0.00 18 1018.3
20181109095837 61 138 5.0 7.0 0.00 0.00 0.00 19 1018.3
20181109094839 62 114 5.0 7.0 0.00 0.00 0.00 19 1018.4
20181109093849 62 148 5.0 6.0 0.00 0.00 0.00 17 1018.3
20181109093332 62 143 4.0 6.0 0.00 0.00 0.00 17 1018.3
20181109092337 63 133 3.0 6.0 0.00 0.00 0.00 14 1018.1
20181109091347 62 170 2.0 3.0 0.00 0.00 0.00 14 1018.3
20181109090846 63 185 1.0 2.0 0.00 0.00 0.00 14 1018.3
20181109090330 63 43 0.0 5.0 0.00 0.00 0.00 12 1018.2
20181109085340 64 13 5.0 9.0 0.00 0.00 0.00 12 1018.1
20181109084342 64 31 3.0 6.0 0.00 0.00 0.00 12 1018.1
20181109083342 64 20 5.0 6.0 0.00 0.00 0.00 11 1018.1
20181109082345 64 318 1.0 3.0 0.00 0.00 0.00 12 1018.1
20181109081352 65 25 2.0 5.0 0.00 0.00 0.00 12 1018.2
20181109080848 64 21 2.0 5.0 0.00 0.00 0.00 12 1018.2
20181109075909 65 13 2.0 5.0 0.00 0.00 0.00 12 1018.2
20181109075357 65 20 2.0 7.0 0.00 0.00 0.00 12 1018.1
20181109074851 65 353 4.0 8.0 0.00 0.00 0.00 12 1018.0
20181109073836 65 26 7.0 10.0 0.00 0.00 0.00 12 1018.1
20181109072837 65 26 7.0 10.0 0.00 0.00 0.00 12 1018.1
20181109071848 65 21 6.0 9.0 0.00 0.00 0.00 12 1017.9
20181109070854 66 353 7.0 11.0 0.00 0.00 0.00 12 1017.9
20181109065835 66 356 8.0 11.0 0.00 0.00 0.00 12 1017.8
20181109064838 66 15 9.0 13.0 0.00 0.00 0.00 12 1017.7
20181109063844 66 351 9.0 11.0 0.00 0.00 0.00 12 1017.7
20181109062859 67 349 8.0 11.0 0.00 0.00 0.00 12 1017.7
20181109061852 66 359 7.0 11.0 0.00 0.00 0.00 12 1017.8
20181109060841 67 334 7.0 14.0 0.00 0.00 0.00 12 1017.8
20181109055852 67 349 6.0 12.0 0.00 0.00 0.00 12 1017.7
20181109055350 67 343 8.0 12.0 0.00 0.00 0.00 12 1017.5
20181109054832 66 344 6.0 11.0 0.00 0.00 0.00 12 1017.5
20181109053835 67 360 9.0 13.0 0.00 0.00 0.00 12 1017.3
20181109052838 67 8 10.0 14.0 0.00 0.00 0.00 12 1017.2
20181109051843 66 13 9.0 12.0 0.00 0.00 0.00 12 1017.2
20181109050855 66 3 9.0 13.0 0.00 0.00 0.00 13 1017.0
20181109050332 66 10 10.0 15.0 0.00 0.00 0.00 12 1017.0
20181109044841 67 10 10.0 13.0 0.00 0.00 0.00 12 1017.0
20181109043846 66 349 10.0 13.0 0.00 0.00 0.00 12 1016.8
20181109042853 67 4 12.0 14.0 0.00 0.00 0.00 12 1016.7
20181109041853 67 355 12.0 16.0 0.00 0.00 0.00 12 1016.5
20181109041332 67 19 9.0 17.0 0.00 0.00 0.00 12 1016.7
20181109040341 67 10 12.0 15.0 0.00 0.00 0.00 12 1016.5
20181109034854 67 358 8.0 13.0 0.00 0.00 0.00 11 1016.5
20181109033835 67 10 11.0 16.0 0.00 0.00 0.00 11 1016.5
20181109032839 67 4 7.0 12.0 0.00 0.00 0.00 11 1016.6
20181109032338 67 342 8.0 14.0 0.00 0.00 0.00 11 1016.6
20181109031343 67 336 8.0 14.0 0.00 0.00 0.00 11 1016.4
20181109030345 68 337 12.0 14.0 0.00 0.00 0.00 11 1016.1
20181109025348 68 332 9.0 14.0 0.00 0.00 0.00 10 1016.3
20181109024351 68 323 6.0 12.0 0.00 0.00 0.00 11 1016.3
20181109022348 68 325 7.0 12.0 0.00 0.00 0.00 11 1016.2
20181109021334 68 311 8.0 12.0 0.00 0.00 0.00 11 1016.1
20181109020338 68 317 8.0 12.0 0.00 0.00 0.00 11 1016.0
20181109015341 68 328 8.0 12.0 0.00 0.00 0.00 11 1015.9
20181109014346 68 7 10.0 13.0 0.00 0.00 0.00 11 1015.7
20181109013350 68 342 9.0 18.0 0.00 0.00 0.00 11 1015.8
20181109012348 68 352 12.0 17.0 0.00 0.00 0.00 11 1015.6
20181109011354 68 339 11.0 16.0 0.00 0.00 0.00 11 1015.7
20181109010832 69 344 11.0 16.0 0.00 0.00 0.00 11 1015.6
20181109005836 69 323 10.0 14.0 0.00 0.00 0.00 11 1015.6
20181109004837 69 328 9.0 14.0 0.00 0.00 0.00 11 1015.6
20181109003841 70 346 11.0 18.0 0.00 0.00 0.00 11 1015.4
20181109002845 70 339 12.0 15.0 0.00 0.00 0.00 11 1015.4
20181109001852 70 337 12.0 15.0 0.00 0.00 0.00 11 1015.4
20181109001332 70 349 11.0 14.0 0.00 0.00 0.00 11 1015.5
20181109000343 71 20 11.0 16.0 0.00 0.00 0.00 11 1015.4
20181108235350 70 19 8.0 12.0 0.00 0.00 0.00 13 1015.6
20181108234336 70 53 11.0 20.0 0.00 0.00 0.00 14 1015.3
20181108233345 70 47 18.0 23.0 0.00 0.00 0.00 13 1015.3
20181108232342 70 45 20.0 26.0 0.00 0.00 0.00 13 1015.1
20181108231345 70 39 25.0 29.0 0.00 0.00 0.00 12 1014.8
20181108230348 70 41 25.0 35.0 0.00 0.00 0.00 12 1014.9
20181108225354 70 53 23.0 31.0 0.00 0.00 0.00 11 1014.7
20181108224334 70 60 24.0 39.0 0.00 0.00 0.00 11 1015.0
20181108223343 70 36 24.0 34.0 0.00 0.00 0.00 11 1015.0
20181108222338 70 38 27.0 34.0 0.00 0.00 0.00 11 1014.9
20181108221343 70 47 28.0 38.0 0.00 0.00 0.00 11 1014.8
20181108220345 70 43 27.0 36.0 0.00 0.00 0.00 11 1014.7
20181108215355 69 19 23.0 35.0 0.00 0.00 0.00 11 1014.9
20181108214354 69 41 31.0 45.0 0.00 0.00 0.00 10 1014.5
20181108213334 69 29 26.0 35.0 0.00 0.00 0.00 11 1015.2
20181108212337 69 42 31.0 38.0 0.00 0.00 0.00 11 1014.7
20181108211344 69 41 27.0 34.0 0.00 0.00 0.00 11 1015.1
20181108210347 68 15 23.0 40.0 0.00 0.00 0.00 12 1015.4
20181108205351 68 41 28.0 38.0 0.00 0.00 0.00 12 1015.1
20181108204352 68 50 27.0 34.0 0.00 0.00 0.00 12 1015.3
20181108203333 67 35 26.0 38.0 0.00 0.00 0.00 12 1015.2
20181108202336 67 33 31.0 36.0 0.00 0.00 0.00 12 1015.2
20181108201340 67 24 29.0 38.0 0.00 0.00 0.00 11 1015.5
20181108200348 66 42 27.0 39.0 0.00 0.00 0.00 12 1015.3
20181108195347 66 13 32.0 44.0 0.00 0.00 0.00 12 1015.3
20181108194350 67 44 29.0 37.0 0.00 0.00 0.00 13 1015.6
20181108193333 67 65 23.0 37.0 0.00 0.00 0.00 14 1016.0
20181108191843 66 52 27.0 34.0 0.00 0.00 0.00 15 1015.5
20181108190845 66 5 19.0 26.0 0.00 0.00 0.00 14 1016.2
20181108185854 65 14 20.0 27.0 0.00 0.00 0.00 14 1016.0
20181108184842 65 9 20.0 29.0 0.00 0.00 0.00 14 1016.2
20181108183848 64 27 19.0 28.0 0.00 0.00 0.00 15 1016.2
20181108182847 64 27 19.0 25.0 0.00 0.00 0.00 15 1016.1
20181108181849 64 15 21.0 29.0 0.00 0.00 0.00 15 1016.3
20181108181333 63 2 22.0 29.0 0.00 0.00 0.00 15 1016.1
20181108180333 63 7 20.0 25.0 0.00 0.00 0.00 16 1016.4
20181108175338 63 5 22.0 27.0 0.00 0.00 0.00 16 1016.4
20181108174343 62 347 21.0 29.0 0.00 0.00 0.00 17 1016.5
20181108173348 62 342 23.0 29.0 0.00 0.00 0.00 17 1016.3
20181108172345 62 24 24.0 33.0 0.00 0.00 0.00 18 1016.5
20181108171346 61 10 22.0 32.0 0.00 0.00 0.00 18 1016.1
20181108170350 61 11 17.0 23.0 0.00 0.00 0.00 19 1016.3
20181108165834 61 11 17.0 24.0 0.00 0.00 0.00 19 1016.4
20181108164836 60 353 19.0 27.0 0.00 0.00 0.00 19 1016.5
20181108163845 60 351 22.0 28.0 0.00 0.00 0.00 19 1015.9
20181108162841 59 10 21.0 27.0 0.00 0.00 0.00 20 1016.0
20181108162342 59 9 20.0 30.0 0.00 0.00 0.00 20 1016.2
20181108161350 59 351 21.0 26.0 0.00 0.00 0.00 20 1015.7
20181108160847 59 360 20.0 25.0 0.00 0.00 0.00 20 1015.7
20181108155855 59 14 10.0 17.0 0.00 0.00 0.00 21 1016.4
20181108154836 59 353 12.0 18.0 0.00 0.00 0.00 21 1016.3
20181108153348 58 7 11.0 16.0 0.00 0.00 0.00 21 1016.0
20181108152848 58 15 12.0 16.0 0.00 0.00 0.00 21 1015.9
20181108151849 58 336 10.0 17.0 0.00 0.00 0.00 21 1016.0
20181108150836 58 331 10.0 17.0 0.00 0.00 0.00 21 1015.9
20181108145839 58 327 7.0 16.0 0.00 0.00 0.00 21 1015.8
20181108144843 58 4 12.0 19.0 0.00 0.00 0.00 21 1015.6
20181108143847 58 344 15.0 22.0 0.00 0.00 0.00 21 1015.2
20181108142855 58 350 17.0 22.0 0.00 0.00 0.00 22 1015.2
20181108141834 58 8 17.0 23.0 0.00 0.00 0.00 22 1015.2
20181108140839 58 17 15.0 19.0 0.00 0.00 0.00 23 1015.1
20181108135843 58 13 17.0 21.0 0.00 0.00 0.00 23 1015.1
20181108134844 58 29 15.0 24.0 0.00 0.00 0.00 23 1015.2
20181108133333 59 39 13.0 25.0 0.00 0.00 0.00 21 1015.2
20181108131841 60 19 6.0 11.0 0.00 0.00 0.00 20 1015.2
20181108130844 60 3 6.0 12.0 0.00 0.00 0.00 20 1015.2
20181108125845 60 360 9.0 17.0 0.00 0.00 0.00 20 1015.1
20181108124920 60 342 12.0 17.0 0.00 0.00 0.00 20 1015.0
20181108124332 59 351 12.0 16.0 0.00 0.00 0.00 21 1015.0
20181108123351 59 5 12.0 17.0 0.00 0.00 0.00 21 1015.0
20181108122322 59 354 12.0 18.0 0.00 0.00 0.00 21 1014.8
20181108121322 60 356 10.0 17.0 0.00 0.00 0.00 21 1014.8
20181108120351 60 334 13.0 17.0 0.00 0.00 0.00 20 1014.8
20181108115335 60 328 12.0 18.0 0.00 0.00 0.00 20 1014.7
20181108113828 60 350 15.0 21.0 0.00 0.00 0.00 19 1014.7
20181108112831 60 344 15.0 19.0 0.00 0.00 0.00 19 1014.6
20181108111831 60 15 15.0 19.0 0.00 0.00 0.00 18 1014.4
20181108110836 61 1 15.0 23.0 0.00 0.00 0.00 18 1014.6
20181108110404 61 357 13.0 17.0 0.00 0.00 0.00 18 1014.6
20181108105358 61 348 11.0 18.0 0.00 0.00 0.00 17 1014.8
20181108104358 61 344 13.0 17.0 0.00 0.00 0.00 17 1014.8
20181108103400 61 337 10.0 14.0 0.00 0.00 0.00 16 1014.9
20181108102407 61 345 9.0 13.0 0.00 0.00 0.00 16 1015.0
20181108101905 61 346 9.0 15.0 0.00 0.00 0.00 16 1014.9
20181108100909 62 342 12.0 16.0 0.00 0.00 0.00 15 1014.8
20181108095909 62 325 9.0 15.0 0.00 0.00 0.00 15 1014.7
20181108095353 62 340 9.0 12.0 0.00 0.00 0.00 15 1014.7
20181108094353 62 328 8.0 11.0 0.00 0.00 0.00 15 1014.9
20181108093357 62 330 6.0 10.0 0.00 0.00 0.00 15 1014.8
20181108092355 63 323 7.0 13.0 0.00 0.00 0.00 14 1014.8
20181108091405 62 22 8.0 18.0 0.00 0.00 0.00 15 1014.6
20181108090859 63 18 10.0 18.0 0.00 0.00 0.00 14 1014.5
20181108085859 64 328 8.0 19.0 0.00 0.00 0.00 14 1014.4
20181108084906 64 348 14.0 20.0 0.00 0.00 0.00 14 1014.4
20181108084352 64 339 10.0 18.0 0.00 0.00 0.00 14 1014.6
20181108083355 63 354 12.0 18.0 0.00 0.00 0.00 14 1014.6
20181108082400 62 30 3.0 9.0 0.00 0.00 0.00 24 1014.6
20181108081408 62 62 6.0 13.0 0.00 0.00 0.00 26 1014.6
20181108080904 62 85 8.0 9.0 0.00 0.00 0.00 22 1014.5
20181108075914 63 103 4.0 7.0 0.00 0.00 0.00 22 1014.5
20181108075400 63 113 3.0 7.0 0.00 0.00 0.00 22 1014.5
20181108074405 64 73 3.0 7.0 0.00 0.00 0.00 19 1014.4
20181108072909 64 333 3.0 7.0 0.00 0.00 0.00 18 1014.5
20181108071856 63 70 3.0 5.0 0.00 0.00 0.00 20 1014.5
20181108070856 64 96 2.0 8.0 0.00 0.00 0.00 18 1014.6
20181108065902 66 337 7.0 9.0 0.00 0.00 0.00 16 1014.4
20181108065404 66 339 7.0 9.0 0.00 0.00 0.00 17 1014.4
20181108064403 65 342 5.0 8.0 0.00 0.00 0.00 17 1014.4
20181108063412 65 276 4.0 5.0 0.00 0.00 0.00 17 1014.2
20181108062410 65 39 4.0 10.0 0.00 0.00 0.00 17 1014.4
20181108061412 66 346 3.0 10.0 0.00 0.00 0.00 16 1014.5
20181108060354 66 12 7.0 14.0 0.00 0.00 0.00 16 1014.3
20181108055358 67 32 8.0 13.0 0.00 0.00 0.00 16 1014.2
20181108054358 67 8 8.0 13.0 0.00 0.00 0.00 16 1014.4
20181108053400 67 12 6.0 12.0 0.00 0.00 0.00 16 1014.2
20181108052400 67 34 9.0 14.0 0.00 0.00 0.00 15 1014.2
20181108051403 67 8 3.0 8.0 0.00 0.00 0.00 16 1014.2
20181108050409 67 342 4.0 7.0 0.00 0.00 0.00 16 1014.2
20181108045411 67 17 2.0 6.0 0.00 0.00 0.00 17 1014.0
20181108044351 67 25 3.0 8.0 0.00 0.00 0.00 18 1014.0
20181108043354 68 33 7.0 9.0 0.00 0.00 0.00 17 1014.0
20181108042401 68 24 9.0 11.0 0.00 0.00 0.00 16 1014.0
20181108041404 67 46 3.0 5.0 0.00 0.00 0.00 20 1013.9
20181108040857 68 42 4.0 6.0 0.00 0.00 0.00 19 1013.8
20181108035903 68 29 5.0 10.0 0.00 0.00 0.00 17 1013.8
20181108034905 69 19 7.0 11.0 0.00 0.00 0.00 16 1013.9
20181108033908 69 15 8.0 10.0 0.00 0.00 0.00 16 1013.7
20181108032908 68 22 5.0 7.0 0.00 0.00 0.00 18 1013.7
20181108031917 68 15 3.0 7.0 0.00 0.00 0.00 19 1013.8
20181108030852 67 29 4.0 10.0 0.00 0.00 0.00 18 1013.9
20181108025857 67 52 6.0 11.0 0.00 0.00 0.00 19 1013.7
20181108024902 67 48 7.0 12.0 0.00 0.00 0.00 19 1013.7
20181108023905 67 74 1.0 5.0 0.00 0.00 0.00 18 1013.7
20181108022916 67 76 2.0 4.0 0.00 0.00 0.00 19 1013.7
20181108022413 67 94 2.0 3.0 0.00 0.00 0.00 19 1013.7
20181108021357 67 93 1.0 3.0 0.00 0.00 0.00 19 1013.7
20181108020406 68 121 3.0 4.0 0.00 0.00 0.00 19 1013.7
20181108015408 68 63 3.0 5.0 0.00 0.00 0.00 20 1013.6
20181108014852 68 86 3.0 6.0 0.00 0.00 0.00 21 1013.5
20181108013359 68 75 6.0 7.0 0.00 0.00 0.00 20 1013.5
20181108012814 0 0.0 0.0 0.00 0.00 0.00 1013.5
20181108012307 0 0.0 0.0 0.00 0.00 0.00 1013.5
20181108011311 0 0.0 0.0 0.00 0.00 0.00 1013.1
20181108010324 69 94 5.0 8.0 0.00 0.00 0.00 23 1013.2
20181108005323 69 84 6.0 8.0 0.00 0.00 0.00 23 1013.4
20181108004314 70 91 5.0 10.0 0.00 0.00 0.00 23 1013.5
20181108003316 70 87 4.0 7.0 0.00 0.00 0.00 21 1013.6
20181108002316 70 103 4.0 10.0 0.00 0.00 0.00 22 1013.6
20181108001324 70 99 4.0 5.0 0.00 0.00 0.00 22 1013.4
20181108000311 70 129 3.0 5.0 0.00 0.00 0.00 22 1013.6
20181107235314 71 124 4.0 5.0 0.00 0.00 0.00 22 1013.7
20181107234319 72 126 3.0 8.0 0.00 0.00 0.00 22 1013.6
20181107233323 71 189 4.0 8.0 0.00 0.00 0.00 25 1013.7
20181107232819 70 130 1.0 5.0 0.00 0.00 0.00 25 1013.7
20181107231806 70 113 3.0 6.0 0.00 0.00 0.00 27 1013.7
20181107230812 69 158 2.0 5.0 0.00 0.00 0.00 27 1013.8
20181107225814 69 111 4.0 7.0 0.00 0.00 0.00 28 1013.9
20181107224825 69 102 2.0 5.0 0.00 0.00 0.00 27 1013.8
20181107224307 69 112 3.0 5.0 0.00 0.00 0.00 26 1013.8
20181107223313 69 92 2.0 5.0 0.00 0.00 0.00 28 1013.9
20181107222311 69 116 1.0 5.0 0.00 0.00 0.00 28 1014.1
20181107221315 68 115 1.0 5.0 0.00 0.00 0.00 29 1014.2
20181107220321 67 105 5.0 7.0 0.00 0.00 0.00 30 1014.2
20181107215325 67 82 6.0 11.0 0.00 0.00 0.00 29 1014.2
20181107214313 67 91 5.0 9.0 0.00 0.00 0.00 29 1014.2
20181107213311 66 110 5.0 8.0 0.00 0.00 0.00 28 1014.0
20181107212813 66 98 5.0 8.0 0.00 0.00 0.00 28 1014.0
20181107211815 66 91 6.0 10.0 0.00 0.00 0.00 28 1014.2
20181107210816 66 107 7.0 10.0 0.00 0.00 0.00 29 1014.3
20181107205822 66 105 6.0 8.0 0.00 0.00 0.00 30 1014.3
20181107204825 65 119 6.0 8.0 0.00 0.00 0.00 30 1014.5
20181107204307 65 102 5.0 9.0 0.00 0.00 0.00 31 1014.6
20181107203312 65 107 5.0 9.0 0.00 0.00 0.00 31 1014.7
20181107202314 64 115 5.0 9.0 0.00 0.00 0.00 32 1014.8
20181107201313 64 97 5.0 8.0 0.00 0.00 0.00 30 1014.9
20181107195823 63 92 6.0 11.0 0.00 0.00 0.00 29 1015.1
20181107195305 63 95 6.0 11.0 0.00 0.00 0.00 31 1015.1
20181107194309 63 111 7.0 10.0 0.00 0.00 0.00 32 1015.1
20181107193319 62 111 7.0 10.0 0.00 0.00 0.00 33 1015.2
20181107192320 62 110 8.0 11.0 0.00 0.00 0.00 31 1015.0
20181107191306 61 98 8.0 12.0 0.00 0.00 0.00 33 1015.3
20181107190307 61 118 7.0 11.0 0.00 0.00 0.00 35 1015.3
20181107185316 60 110 7.0 11.0 0.00 0.00 0.00 42 1015.5
20181107184318 60 98 7.0 10.0 0.00 0.00 0.00 46 1015.5
20181107183322 60 108 7.0 10.0 0.00 0.00 0.00 48 1015.6
20181107182307 60 106 6.0 10.0 0.00 0.00 0.00 48 1015.6
20181107181312 61 106 4.0 7.0 0.00 0.00 0.00 46 1015.7
20181107180324 61 121 3.0 6.0 0.00 0.00 0.00 46 1015.8
20181107175326 60 101 2.0 8.0 0.00 0.00 0.00 47 1015.7
20181107173816 58 79 4.0 7.0 0.00 0.00 0.00 50 1015.8
20181107172818 58 109 5.0 9.0 0.00 0.00 0.00 51 1015.9
20181107172318 58 81 5.0 9.0 0.00 0.00 0.00 49 1015.6
20181107171319 60 102 3.0 7.0 0.00 0.00 0.00 45 1015.7
20181107170804 60 122 2.0 5.0 0.00 0.00 0.00 44 1015.7
20181107165813 59 106 3.0 6.0 0.00 0.00 0.00 48 1015.7
20181107164816 59 137 3.0 5.0 0.00 0.00 0.00 43 1015.6
20181107163816 59 119 3.0 6.0 0.00 0.00 0.00 41 1015.5
20181107162824 59 107 3.0 5.0 0.00 0.00 0.00 37 1015.4
20181107162322 59 135 2.0 5.0 0.00 0.00 0.00 41 1015.6
20181107161308 59 95 1.0 4.0 0.00 0.00 0.00 41 1015.3
20181107160308 59 60 1.0 4.0 0.00 0.00 0.00 37 1015.1
20181107155313 59 161 2.0 4.0 0.00 0.00 0.00 38 1015.1
20181107154314 58 102 2.0 5.0 0.00 0.00 0.00 40 1014.9
20181107153318 58 124 3.0 6.0 0.00 0.00 0.00 36 1014.9
20181107152808 58 138 4.0 7.0 0.00 0.00 0.00 37 1014.6
20181107151808 58 142 5.0 7.0 0.00 0.00 0.00 38 1014.4
20181107150813 58 136 5.0 6.0 0.00 0.00 0.00 40 1014.3
20181107145822 58 150 6.0 7.0 0.00 0.00 0.00 39 1014.4
20181107144804 57 145 6.0 7.0 0.00 0.00 0.00 41 1014.2
20181107143806 57 149 6.0 7.0 0.00 0.00 0.00 40 1014.2
20181107142819 57 162 7.0 7.0 0.00 0.00 0.00 41 1013.9
20181107142318 57 147 5.0 6.0 0.00 0.00 0.00 42 1014.0
20181107141305 58 121 4.0 4.0 0.00 0.00 0.00 41 1014.1
20181107140310 57 143 2.0 3.0 0.00 0.00 0.00 41 1014.0
20181107135313 57 208 0.0 0.0 0.00 0.00 0.00 39 1013.9
20181107134318 57 181 0.0 0.0 0.00 0.00 0.00 40 1013.9
20181107133322 57 181 0.0 0.0 0.00 0.00 0.00 41 1013.8
20181107132819 58 153 0.0 0.0 0.00 0.00 0.00 42 1013.8
20181107131821 58 111 0.0 0.0 0.00 0.00 0.00 42 1013.7
20181107130822 58 117 0.0 0.0 0.00 0.00 0.00 39 1013.6
20181107130303 58 117 0.0 0.0 0.00 0.00 0.00 41 1013.7
20181107125310 58 43 0.0 0.0 0.00 0.00 0.00 42 1013.6
20181107124313 58 18 0.0 0.0 0.00 0.00 0.00 41 1013.6
20181107123318 58 5 0.0 0.0 0.00 0.00 0.00 40 1013.5
20181107122319 59 8 0.0 1.0 0.00 0.00 0.00 40 1013.5
20181107121321 60 163 0.0 2.0 0.00 0.00 0.00 39 1013.7
20181107120323 60 62 1.0 3.0 0.00 0.00 0.00 38 1013.5
20181107115807 61 67 2.0 3.0 0.00 0.00 0.00 35 1013.2
20181107114807 62 79 2.0 5.0 0.00 0.00 0.00 29 1013.3
20181107113809 62 73 4.0 5.0 0.00 0.00 0.00 26 1013.3
20181107112817 63 91 4.0 5.0 0.00 0.00 0.00 28 1013.4
20181107111812 63 80 5.0 7.0 0.00 0.00 0.00 27 1013.4
20181107110823 63 88 5.0 7.0 0.00 0.00 0.00 29 1013.6
20181107105824 64 84 6.0 9.0 0.00 0.00 0.00 25 1013.6
20181107105303 64 98 4.0 6.0 0.00 0.00 0.00 27 1013.5
20181107104309 64 118 2.0 4.0 0.00 0.00 0.00 27 1013.6
20181107103312 64 117 1.0 4.0 0.00 0.00 0.00 30 1013.6
20181107102316 65 117 3.0 5.0 0.00 0.00 0.00 26 1013.6
20181107101316 65 111 4.0 6.0 0.00 0.00 0.00 26 1013.6
20181107100327 65 119 4.0 6.0 0.00 0.00 0.00 28 1013.5
20181107094822 65 137 3.0 5.0 0.00 0.00 0.00 29 1013.4
20181107093820 65 127 2.0 4.0 0.00 0.00 0.00 30 1013.4
20181107092823 65 112 2.0 3.0 0.00 0.00 0.00 29 1013.4
20181107092305 65 123 1.0 2.0 0.00 0.00 0.00 29 1013.5
20181107091313 64 122 0.0 2.0 0.00 0.00 0.00 30 1013.3
20181107090316 64 96 0.0 2.0 0.00 0.00 0.00 31 1013.3
20181107085317 64 66 1.0 2.0 0.00 0.00 0.00 30 1013.3
20181107084306 64 202 1.0 2.0 0.00 0.00 0.00 31 1013.4
20181107083310 65 111 0.0 2.0 0.00 0.00 0.00 30 1013.3
20181107082804 64 155 0.0 0.0 0.00 0.00 0.00 30 1013.3
20181107081813 65 155 0.0 2.0 0.00 0.00 0.00 30 1013.2
20181107081308 65 195 0.0 2.0 0.00 0.00 0.00 30 1013.3
20181107080311 64 228 0.0 1.0 0.00 0.00 0.00 30 1013.4
20181107075326 65 228 0.0 1.0 0.00 0.00 0.00 29 1013.6
20181107074309 66 237 0.0 1.0 0.00 0.00 0.00 29 1013.6
20181107073312 67 259 1.0 2.0 0.00 0.00 0.00 28 1013.7
20181107072812 66 260 1.0 3.0 0.00 0.00 0.00 28 1013.8
20181107071814 66 231 3.0 4.0 0.00 0.00 0.00 29 1013.6
20181107070818 66 218 2.0 5.0 0.00 0.00 0.00 28 1013.5
20181107065824 67 258 2.0 4.0 0.00 0.00 0.00 27 1013.6
20181107064810 68 275 1.0 5.0 0.00 0.00 0.00 27 1013.4
20181107063811 68 209 3.0 5.0 0.00 0.00 0.00 27 1013.3
20181107062810 67 250 5.0 9.0 0.00 0.00 0.00 28 1013.2
20181107061812 68 260 6.0 10.0 0.00 0.00 0.00 27 1013.2
20181107060821 67 254 7.0 10.0 0.00 0.00 0.00 28 1013.4
20181107055820 66 261 4.0 10.0 0.00 0.00 0.00 30 1013.3
20181107054821 0 0.0 0.0 0.00 0.00 0.00 1013.1
20181107053823 0 0.0 0.0 0.00 0.00 0.00 1013.2
20181107053322 0 0.0 0.0 0.00 0.00 0.00 1013.1
20181107052817 0 0.0 0.0 0.00 0.00 0.00 1013.1
20181107051819 0 0.0 0.0 0.00 0.00 0.00 1013.0
20181107051312 0 0.0 0.0 0.00 0.00 0.00 1012.9
20181107050318 0 0.0 0.0 0.00 0.00 0.00 1012.7
20181107045315 0 0.0 0.0 0.00 0.00 0.00 1012.7
20181107044318 0 0.0 0.0 0.00 0.00 0.00 1012.6
20181107043327 0 0.0 0.0 0.00 0.00 0.00 1012.7
20181107042812 0 0.0 0.0 0.00 0.00 0.00 1012.7
20181107041856 0 0.0 0.0 0.00 0.00 0.00 1012.5
20181107041315 0 0.0 0.0 0.00 0.00 0.00 1012.5
20181107040317 0 0.0 0.0 0.00 0.00 0.00 1012.4
20181107035324 0 0.0 0.0 0.00 0.00 0.00 1012.4
20181107034824 0 0.0 0.0 0.00 0.00 0.00 1012.4
20181107033825 0 0.0 0.0 0.00 0.00 0.00 1012.3
20181107033319 0 0.0 0.0 0.00 0.00 0.00 1012.3
20181107032328 0 0.0 0.0 0.00 0.00 0.00 1012.2
20181107031820 0 0.0 0.0 0.00 0.00 0.00 1012.1
20181107030825 0 0.0 0.0 0.00 0.00 0.00 1012.2
20181107025817 0 0.0 0.0 0.00 0.00 0.00 1012.2
20181107024823 0 0.0 0.0 0.00 0.00 0.00 1012.0
20181107023822 0 0.0 0.0 0.00 0.00 0.00 1011.8
20181107022824 0 0.0 0.0 0.00 0.00 0.00 1012.0
20181107022315 0 0.0 0.0 0.00 0.00 0.00 1011.9
20181107021321 0 0.0 0.0 0.00 0.00 0.00 1011.8
20181107020318 0 0.0 0.0 0.00 0.00 0.00 1011.9
20181107015321 0 0.0 0.0 0.00 0.00 0.00 1012.0
20181107014819 0 0.0 0.0 0.00 0.00 0.00 1012.0
20181107013321 0 0.0 0.0 0.00 0.00 0.00 1012.0
20181107012807 0 0.0 0.0 0.00 0.00 0.00 1012.1
20181107012309 0 0.0 0.0 0.00 0.00 0.00 1012.1
20181107011324 0 0.0 0.0 0.00 0.00 0.00 1012.1
20181107010806 0 0.0 0.0 0.00 0.00 0.00 1012.2
20181107005820 0 0.0 0.0 0.00 0.00 0.00 1012.2
20181107004834 0 0.0 0.0 0.00 0.00 0.00 1012.1
20181107003811 0 0.0 0.0 0.00 0.00 0.00 1012.1
20181107002817 0 0.0 0.0 0.00 0.00 0.00 1012.2
20181107002314 0 0.0 0.0 0.00 0.00 0.00 1012.2
20181107001323 0 0.0 0.0 0.00 0.00 0.00 1012.0
20181107000817 0 0.0 0.0 0.00 0.00 0.00 1012.0
20181106235821 0 0.0 0.0 0.00 0.00 0.00 1012.2
20181106234818 0 0.0 0.0 0.00 0.00 0.00 1012.1
20181106233818 0 0.0 0.0 0.00 0.00 0.00 1012.1
20181106232819 0 0.0 0.0 0.00 0.00 0.00 1012.2
20181106232318 0 0.0 0.0 0.00 0.00 0.00 1012.0
20181106231316 0 0.0 0.0 0.00 0.00 0.00 1012.3
20181106230323 0 0.0 0.0 0.00 0.00 0.00 1012.2
20181106225325 0 0.0 0.0 0.00 0.00 0.00 1012.2
20181106224316 0 0.0 0.0 0.00 0.00 0.00 1012.4
20181106223323 0 0.0 0.0 0.00 0.00 0.00 1012.7
20181106222820 0 0.0 0.0 0.00 0.00 0.00 1012.6
20181106222318 0 0.0 0.0 0.00 0.00 0.00 1012.7
20181106221323 0 0.0 0.0 0.00 0.00 0.00 1012.5
20181106220815 0 0.0 0.0 0.00 0.00 0.00 1012.6
20181106215821 0 0.0 0.0 0.00 0.00 0.00 1012.7
20181106214824 70 88 4.0 7.0 0.00 0.00 0.00 25 1012.8
20181106213826 70 98 4.0 7.0 0.00 0.00 0.00 25 1012.8
20181106212821 70 98 4.0 7.0 0.00 0.00 0.00 24 1012.8
20181106211804 69 109 4.0 8.0 0.00 0.00 0.00 25 1012.7
20181106210813 68 110 5.0 8.0 0.00 0.00 0.00 24 1012.9
20181106205816 68 114 5.0 9.0 0.00 0.00 0.00 24 1012.9
20181106204822 67 103 6.0 9.0 0.00 0.00 0.00 24 1012.9
20181106204306 67 110 6.0 10.0 0.00 0.00 0.00 25 1013.2
20181106203307 67 94 6.0 12.0 0.00 0.00 0.00 30 1013.1
20181106202310 67 109 7.0 11.0 0.00 0.00 0.00 34 1013.1
20181106201326 66 89 8.0 12.0 0.00 0.00 0.00 36 1013.3
20181106195818 65 100 8.0 11.0 0.00 0.00 0.00 40 1013.5
20181106194827 65 91 7.0 10.0 0.00 0.00 0.00 42 1013.5
20181106194305 65 97 7.0 10.0 0.00 0.00 0.00 43 1013.6
20181106193312 64 112 6.0 10.0 0.00 0.00 0.00 45 1013.6
20181106192809 64 92 7.0 13.0 0.00 0.00 0.00 45 1013.5
20181106192309 63 88 7.0 11.0 0.00 0.00 0.00 47 1013.7
20181106191317 64 100 7.0 10.0 0.00 0.00 0.00 47 1013.9
20181106190318 63 102 6.0 10.0 0.00 0.00 0.00 44 1013.9
20181106185322 63 84 6.0 11.0 0.00 0.00 0.00 44 1013.9
20181106184807 63 86 8.0 11.0 0.00 0.00 0.00 43 1013.8
20181106183811 62 103 7.0 12.0 0.00 0.00 0.00 44 1014.0
20181106182812 62 105 6.0 8.0 0.00 0.00 0.00 45 1013.9
20181106181820 62 107 4.0 7.0 0.00 0.00 0.00 48 1014.0
20181106181320 62 103 3.0 8.0 0.00 0.00 0.00 48 1014.0
20181106180324 62 91 5.0 7.0 0.00 0.00 0.00 49 1014.1
20181106175305 62 136 1.0 3.0 0.00 0.00 0.00 49 1014.1
20181106174309 62 77 2.0 5.0 0.00 0.00 0.00 48 1014.1
20181106173318 62 79 1.0 3.0 0.00 0.00 0.00 46 1014.0
20181106172812 62 145 1.0 3.0 0.00 0.00 0.00 44 1014.1
20181106171816 61 257 0.0 4.0 0.00 0.00 0.00 45 1014.1
20181106170821 61 129 0.0 3.0 0.00 0.00 0.00 45 1013.9
20181106165311 60 104 2.0 4.0 0.00 0.00 0.00 45 1013.6
20181106164319 59 44 0.0 2.0 0.00 0.00 0.00 48 1013.4
20181106163806 60 67 0.0 3.0 0.00 0.00 0.00 48 1013.6
20181106162812 60 25 0.0 3.0 0.00 0.00 0.00 44 1013.5
20181106161819 60 72 0.0 3.0 0.00 0.00 0.00 44 1013.5
20181106160823 61 104 1.0 2.0 0.00 0.00 0.00 40 1013.3
20181106160304 61 133 1.0 7.0 0.00 0.00 0.00 41 1013.3
20181106155306 60 215 5.0 7.0 0.00 0.00 0.00 41 1013.1
20181106154315 60 240 3.0 9.0 0.00 0.00 0.00 39 1012.9
20181106153322 60 201 7.0 10.0 0.00 0.00 0.00 39 1012.7
20181106152821 60 212 5.0 7.0 0.00 0.00 0.00 40 1012.7
20181106151821 59 217 3.0 5.0 0.00 0.00 0.00 43 1012.6
20181106151308 59 203 2.0 4.0 0.00 0.00 0.00 42 1012.6
20181106150312 59 234 4.0 8.0 0.00 0.00 0.00 45 1012.4
20181106145317 60 197 4.0 8.0 0.00 0.00 0.00 42 1012.5
20181106144320 60 207 3.0 12.0 0.00 0.00 0.00 41 1012.3
20181106143322 58 203 10.0 14.0 0.00 0.00 0.00 50 1012.0
20181106142308 58 216 10.0 14.0 0.00 0.00 0.00 50 1011.9
20181106141309 58 203 2.0 7.0 0.00 0.00 0.00 46 1012.1
20181106140311 59 202 7.0 8.0 0.00 0.00 0.00 43 1012.1
20181106135318 59 178 5.0 7.0 0.00 0.00 0.00 41 1012.1
20181106134323 61 121 5.0 6.0 0.00 0.00 0.00 41 1012.0
20181106133307 60 164 4.0 6.0 0.00 0.00 0.00 41 1011.9
20181106132310 60 183 3.0 4.0 0.00 0.00 0.00 41 1012.1
20181106131313 60 158 4.0 4.0 0.00 0.00 0.00 41 1012.0
20181106130317 61 152 4.0 4.0 0.00 0.00 0.00 42 1011.9
20181106125326 61 150 3.0 4.0 0.00 0.00 0.00 42 1011.9
20181106124321 61 129 3.0 6.0 0.00 0.00 0.00 42 1011.8
20181106123803 61 118 4.0 6.0 0.00 0.00 0.00 41 1011.6
20181106122825 61 129 5.0 6.0 0.00 0.00 0.00 40 1011.7
20181106122325 61 136 6.0 6.0 0.00 0.00 0.00 40 1011.6
20181106121307 61 130 3.0 5.0 0.00 0.00 0.00 35 1011.7
20181106120315 61 107 2.0 3.0 0.00 0.00 0.00 32 1011.6
20181106115314 61 110 2.0 3.0 0.00 0.00 0.00 33 1011.6
20181106114319 61 84 2.0 3.0 0.00 0.00 0.00 34 1011.5
20181106113306 60 68 1.0 3.0 0.00 0.00 0.00 35 1011.5
20181106112306 61 69 0.0 3.0 0.00 0.00 0.00 35 1011.5
20181106111306 61 63 2.0 3.0 0.00 0.00 0.00 34 1011.7
20181106110310 61 41 2.0 3.0 0.00 0.00 0.00 33 1011.6
20181106105319 62 43 2.0 2.0 0.00 0.00 0.00 33 1011.6
20181106104327 62 38 2.0 4.0 0.00 0.00 0.00 32 1011.5
20181106103804 62 53 3.0 4.0 0.00 0.00 0.00 32 1011.5
20181106102806 63 29 3.0 4.0 0.00 0.00 0.00 32 1011.4
20181106101813 63 360 3.0 4.0 0.00 0.00 0.00 34 1011.6
20181106100304 64 292 2.0 4.0 0.00 0.00 0.00 34 1011.4
20181106095307 63 261 0.0 2.0 0.00 0.00 0.00 33 1011.5
20181106094310 64 291 1.0 4.0 0.00 0.00 0.00 33 1011.7
20181106093316 65 278 3.0 7.0 0.00 0.00 0.00 33 1011.5
20181106092319 65 287 6.0 8.0 0.00 0.00 0.00 32 1011.5
20181106091322 66 264 6.0 8.0 0.00 0.00 0.00 31 1011.3
20181106090804 66 261 4.0 6.0 0.00 0.00 0.00 30 1011.4
20181106085313 66 246 3.0 5.0 0.00 0.00 0.00 32 1011.4
20181106084317 65 242 2.0 3.0 0.00 0.00 0.00 34 1011.3
20181106083317 64 251 0.0 2.0 0.00 0.00 0.00 38 1011.3
20181106082322 65 311 1.0 4.0 0.00 0.00 0.00 37 1011.4
20181106081802 66 316 2.0 4.0 0.00 0.00 0.00 36 1011.3
20181106080808 65 278 3.0 4.0 0.00 0.00 0.00 39 1011.1
20181106075821 65 293 3.0 4.0 0.00 0.00 0.00 39 1011.0
20181106075311 65 1 2.0 3.0 0.00 0.00 0.00 39 1011.0
20181106074314 64 267 0.0 2.0 0.00 0.00 0.00 40 1011.0
20181106073315 64 247 0.0 2.0 0.00 0.00 0.00 40 1010.9
20181106072316 64 247 2.0 4.0 0.00 0.00 0.00 40 1011.0
20181106071322 64 305 0.0 2.0 0.00 0.00 0.00 40 1011.0
20181106070304 64 277 2.0 2.0 0.00 0.00 0.00 41 1010.9
20181106065309 64 268 1.0 3.0 0.00 0.00 0.00 42 1010.8
20181106064310 64 261 2.0 4.0 0.00 0.00 0.00 42 1010.7
20181106063314 64 252 1.0 4.0 0.00 0.00 0.00 43 1010.7
20181106062318 64 270 3.0 5.0 0.00 0.00 0.00 43 1010.8
20181106061322 65 254 3.0 5.0 0.00 0.00 0.00 41 1010.8
20181106060325 67 276 3.0 5.0 0.00 0.00 0.00 39 1010.7
20181106055809 67 304 3.0 5.0 0.00 0.00 0.00 38 1010.7
20181106054808 68 256 3.0 8.0 0.00 0.00 0.00 37 1010.5
20181106053812 67 247 3.0 7.0 0.00 0.00 0.00 37 1010.6
20181106052815 65 248 5.0 12.0 0.00 0.00 0.00 41 1010.7
20181106051827 65 241 9.0 13.0 0.00 0.00 0.00 41 1010.5
20181106051307 65 240 11.0 13.0 0.00 0.00 0.00 41 1010.4
20181106050310 65 242 11.0 15.0 0.00 0.00 0.00 41 1010.2
20181106045314 64 244 12.0 16.0 0.00 0.00 0.00 42 1010.2
20181106044319 64 243 13.0 15.0 0.00 0.00 0.00 42 1010.1
20181106043323 65 238 12.0 16.0 0.00 0.00 0.00 41 1010.1
20181106042804 65 245 11.0 17.0 0.00 0.00 0.00 41 1010.1
20181106041809 66 243 15.0 18.0 0.00 0.00 0.00 37 1009.7
20181106040814 66 238 12.0 15.0 0.00 0.00 0.00 36 1009.8
20181106035824 67 240 11.0 16.0 0.00 0.00 0.00 37 1009.6
20181106034310 67 239 13.0 16.0 0.00 0.00 0.00 36 1009.8
20181106033317 67 240 13.0 15.0 0.00 0.00 0.00 37 1009.4
20181106032812 67 242 12.0 15.0 0.00 0.00 0.00 36 1009.4
20181106031817 67 234 11.0 15.0 0.00 0.00 0.00 36 1009.4
20181106030825 67 246 13.0 16.0 0.00 0.00 0.00 36 1009.3
20181106025828 68 235 14.0 17.0 0.00 0.00 0.00 35 1009.3
20181106025309 68 242 15.0 17.0 0.00 0.00 0.00 36 1009.1
20181106024432 68 242 9.0 14.0 0.00 0.00 0.00 37 1009.4
20181106023345 68 234 12.0 16.0 0.00 0.00 0.00 37 1009.2
20181106022843 68 245 13.0 16.0 0.00 0.00 0.00 37 1009.2
20181106021851 67 243 11.0 15.0 0.00 0.00 0.00 39 1009.2
20181106020856 66 247 13.0 15.0 0.00 0.00 0.00 42 1009.1
20181106015858 66 240 13.0 17.0 0.00 0.00 0.00 43 1009.1
20181106014842 67 240 15.0 17.0 0.00 0.00 0.00 43 1009.1
20181106013851 67 238 14.0 17.0 0.00 0.00 0.00 44 1009.0
20181106012854 67 247 15.0 18.0 0.00 0.00 0.00 43 1009.0
20181106011344 68 236 16.0 19.0 0.00 0.00 0.00 42 1009.0
20181106005838 69 249 15.0 20.0 0.00 0.00 0.00 42 1009.1
20181106004349 70 240 17.0 20.0 0.00 0.00 0.00 41 1009.1
20181106003401 70 244 17.0 19.0 0.00 0.00 0.00 40 1009.1
20181106002356 71 245 15.0 19.0 0.00 0.00 0.00 40 1009.2
20181106001339 72 261 15.0 18.0 0.00 0.00 0.00 40 1009.3
20181106000346 72 231 12.0 15.0 0.00 0.00 0.00 38 1009.5
20181105235351 73 245 13.0 15.0 0.00 0.00 0.00 34 1009.5
20181105234355 73 236 12.0 16.0 0.00 0.00 0.00 34 1009.4
20181105233357 74 252 12.0 14.0 0.00 0.00 0.00 32 1009.4
20181105232345 73 254 13.0 15.0 0.00 0.00 0.00 31 1009.5
20181105231351 73 230 11.0 15.0 0.00 0.00 0.00 32 1009.6
20181105230356 73 236 12.0 15.0 0.00 0.00 0.00 31 1009.8
20181105225357 73 242 11.0 16.0 0.00 0.00 0.00 31 1009.6
20181105224838 73 246 11.0 15.0 0.00 0.00 0.00 31 1009.9
20181105223844 73 238 12.0 16.0 0.00 0.00 0.00 32 1010.2
20181105222853 74 270 10.0 13.0 0.00 0.00 0.00 31 1010.2
20181105221857 74 270 9.0 13.0 0.00 0.00 0.00 31 1010.4
20181105220857 74 259 10.0 13.0 0.00 0.00 0.00 31 1010.5
20181105220338 75 271 5.0 9.0 0.00 0.00 0.00 29 1010.6
20181105215346 74 249 5.0 10.0 0.00 0.00 0.00 29 1010.7
20181105214353 74 251 2.0 9.0 0.00 0.00 0.00 30 1010.6
20181105213353 73 270 8.0 10.0 0.00 0.00 0.00 31 1010.5
20181105212353 72 246 8.0 16.0 0.00 0.00 0.00 32 1010.6
20181105211356 72 244 9.0 13.0 0.00 0.00 0.00 36 1010.8
20181105210840 72 278 8.0 14.0 0.00 0.00 0.00 36 1010.9
20181105205846 71 242 10.0 15.0 0.00 0.00 0.00 36 1011.2
20181105204851 71 242 11.0 16.0 0.00 0.00 0.00 39 1011.2
20181105203900 71 235 10.0 15.0 0.00 0.00 0.00 39 1011.0
20181105202858 71 242 12.0 16.0 0.00 0.00 0.00 39 1011.1
20181105202337 71 273 11.0 14.0 0.00 0.00 0.00 36 1011.2
20181105201343 71 260 13.0 16.0 0.00 0.00 0.00 38 1011.4
20181105200355 71 269 10.0 14.0 0.00 0.00 0.00 35 1011.5
20181105195356 70 271 11.0 14.0 0.00 0.00 0.00 35 1011.9
20181105194838 69 247 10.0 15.0 0.00 0.00 0.00 43 1011.7
20181105193843 70 247 10.0 17.0 0.00 0.00 0.00 40 1011.8
20181105192844 69 231 13.0 15.0 0.00 0.00 0.00 40 1011.9
20181105191853 69 236 12.0 17.0 0.00 0.00 0.00 43 1012.0
20181105191345 69 238 14.0 17.0 0.00 0.00 0.00 42 1011.9
20181105190352 70 216 11.0 14.0 0.00 0.00 0.00 41 1012.2
20181105185358 71 290 7.0 10.0 0.00 0.00 0.00 31 1012.4
20181105184837 71 266 5.0 7.0 0.00 0.00 0.00 31 1012.3
20181105183843 71 297 4.0 11.0 0.00 0.00 0.00 31 1012.6
20181105182851 70 310 7.0 15.0 0.00 0.00 0.00 34 1012.5
20181105181854 69 280 10.0 15.0 0.00 0.00 0.00 36 1012.5
20181105180856 69 288 12.0 15.0 0.00 0.00 0.00 35 1012.6
20181105175837 68 278 10.0 14.0 0.00 0.00 0.00 36 1012.6
20181105174847 68 245 8.0 11.0 0.00 0.00 0.00 37 1012.8
20181105173855 67 266 8.0 13.0 0.00 0.00 0.00 39 1012.7
20181105172357 66 237 11.0 13.0 0.00 0.00 0.00 45 1012.8
20181105171341 66 240 10.0 12.0 0.00 0.00 0.00 42 1012.8
20181105170347 66 250 9.0 16.0 0.00 0.00 0.00 44 1012.9
20181105165356 65 247 11.0 13.0 0.00 0.00 0.00 47 1012.8
20181105164851 65 247 10.0 15.0 0.00 0.00 0.00 45 1012.8
20181105163852 65 271 11.0 16.0 0.00 0.00 0.00 44 1012.8
20181105162858 63 250 8.0 12.0 0.00 0.00 0.00 49 1012.7
20181105161846 63 263 9.0 12.0 0.00 0.00 0.00 49 1012.7
20181105160847 63 258 9.0 15.0 0.00 0.00 0.00 47 1012.8
20181105155854 63 263 10.0 13.0 0.00 0.00 0.00 49 1012.6
20181105154854 63 253 7.0 9.0 0.00 0.00 0.00 49 1012.6
20181105153859 62 253 5.0 6.0 0.00 0.00 0.00 50 1012.4
20181105152859 62 264 4.0 6.0 0.00 0.00 0.00 51 1012.2
20181105152340 62 236 4.0 6.0 0.00 0.00 0.00 50 1012.1
20181105151342 62 240 4.0 6.0 0.00 0.00 0.00 50 1012.1
20181105150348 63 254 3.0 4.0 0.00 0.00 0.00 47 1012.2
20181105145355 63 258 3.0 4.0 0.00 0.00 0.00 47 1012.0
20181105144858 63 243 2.0 4.0 0.00 0.00 0.00 47 1011.8
20181105144336 63 266 2.0 4.0 0.00 0.00 0.00 47 1011.9
20181105143340 63 260 3.0 4.0 0.00 0.00 0.00 48 1011.9
20181105142837 63 275 2.0 6.0 0.00 0.00 0.00 48 1012.1
20181105141840 64 269 4.0 5.0 0.00 0.00 0.00 46 1012.0
20181105140846 64 274 3.0 6.0 0.00 0.00 0.00 46 1012.0
20181105135847 64 274 2.0 4.0 0.00 0.00 0.00 47 1011.9
20181105135345 63 278 4.0 6.0 0.00 0.00 0.00 48 1011.9
20181105134845 63 271 4.0 6.0 0.00 0.00 0.00 48 1011.7
20181105133846 64 263 4.0 6.0 0.00 0.00 0.00 46 1011.7
20181105132847 64 279 3.0 7.0 0.00 0.00 0.00 46 1011.8
20181105131856 64 266 5.0 8.0 0.00 0.00 0.00 46 1011.7
20181105130340 64 281 5.0 8.0 0.00 0.00 0.00 47 1011.6
20181105125515 63 247 5.0 8.0 0.00 0.00 0.00 49 1011.4
20181105124854 64 281 5.0 9.0 0.00 0.00 0.00 48 1011.5
20181105124331 64 256 6.0 9.0 0.00 0.00 0.00 47 1011.5
20181105123353 64 280 5.0 8.0 0.00 0.00 0.00 48 1011.7
20181105122850 64 221 5.0 8.0 0.00 0.00 0.00 47 1011.5
20181105121854 64 260 6.0 9.0 0.00 0.00 0.00 47 1011.4
20181105121334 64 228 6.0 9.0 0.00 0.00 0.00 48 1011.4
20181105120338 64 220 3.0 7.0 0.00 0.00 0.00 48 1011.4
20181105115346 63 230 5.0 11.0 0.00 0.00 0.00 51 1011.5
20181105114342 62 266 7.0 10.0 0.00 0.00 0.00 53 1011.5
20181105113354 62 231 7.0 11.0 0.00 0.00 0.00 54 1011.6
20181105112844 61 248 7.0 10.0 0.00 0.00 0.00 56 1011.7
20181105112345 62 240 6.0 10.0 0.00 0.00 0.00 56 1011.5
20181105111353 63 260 6.0 9.0 0.00 0.00 0.00 51 1011.5
20181105110849 63 221 6.0 8.0 0.00 0.00 0.00 51 1011.5
20181105105855 63 245 5.0 9.0 0.00 0.00 0.00 51 1011.8
20181105105337 63 252 6.0 9.0 0.00 0.00 0.00 53 1011.7
20181105104341 63 223 5.0 10.0 0.00 0.00 0.00 52 1011.7
20181105102850 62 232 4.0 14.0 0.00 0.00 0.00 54 1011.7
20181105101853 61 254 12.0 17.0 0.00 0.00 0.00 58 1011.6
20181105101335 61 246 10.0 15.0 0.00 0.00 0.00 59 1011.8
20181105100353 62 238 10.0 14.0 0.00 0.00 0.00 55 1011.9
20181105094838 62 255 6.0 8.0 0.00 0.00 0.00 53 1011.9
20181105093847 61 238 7.0 14.0 0.00 0.00 0.00 58 1011.9
20181105092844 62 242 12.0 16.0 0.00 0.00 0.00 59 1011.7
20181105091846 62 230 14.0 17.0 0.00 0.00 0.00 59 1011.7
20181105090850 61 235 11.0 15.0 0.00 0.00 0.00 59 1011.8
20181105090331 63 216 6.0 10.0 0.00 0.00 0.00 55 1011.8
20181105085338 63 186 7.0 10.0 0.00 0.00 0.00 54 1011.9
20181105084342 62 235 8.0 11.0 0.00 0.00 0.00 56 1012.0
20181105083344 63 211 6.0 10.0 0.00 0.00 0.00 54 1011.9
20181105082345 66 208 3.0 4.0 0.00 0.00 0.00 45 1012.0
20181105081347 67 126 1.0 4.0 0.00 0.00 0.00 43 1011.9
20181105080833 67 122 1.0 4.0 0.00 0.00 0.00 44 1011.9
20181105075900 65 185 0.0 2.0 0.00 0.00 0.00 47 1011.9
20181105075335 65 185 0.0 4.0 0.00 0.00 0.00 47 1012.0
20181105074341 66 245 1.0 2.0 0.00 0.00 0.00 47 1012.1
20181105073343 66 15 1.0 2.0 0.00 0.00 0.00 46 1012.2
20181105072344 66 245 1.0 5.0 0.00 0.00 0.00 48 1012.2
20181105071348 66 247 3.0 7.0 0.00 0.00 0.00 49 1012.1
20181105070352 65 243 5.0 8.0 0.00 0.00 0.00 51 1012.2
20181105065352 66 238 6.0 9.0 0.00 0.00 0.00 49 1012.2
20181105064837 66 242 5.0 8.0 0.00 0.00 0.00 49 1012.1
20181105063842 65 239 7.0 9.0 0.00 0.00 0.00 51 1012.0
20181105062841 64 240 6.0 12.0 0.00 0.00 0.00 55 1012.0
20181105062341 64 223 8.0 13.0 0.00 0.00 0.00 56 1012.0
20181105061345 63 239 10.0 13.0 0.00 0.00 0.00 59 1011.8
20181105060352 63 240 9.0 12.0 0.00 0.00 0.00 57 1011.8
20181105055839 63 245 9.0 14.0 0.00 0.00 0.00 58 1011.7
20181105054840 63 243 12.0 14.0 0.00 0.00 0.00 59 1011.6
20181105053845 64 254 11.0 15.0 0.00 0.00 0.00 57 1011.7
20181105052845 64 242 11.0 16.0 0.00 0.00 0.00 58 1011.6
20181105051844 64 224 11.0 17.0 0.00 0.00 0.00 57 1011.5
20181105050855 63 240 14.0 20.0 0.00 0.00 0.00 60 1011.2
20181105045835 64 239 17.0 22.0 0.00 0.00 0.00 59 1011.0
20181105044844 64 249 16.0 22.0 0.00 0.00 0.00 56 1010.9
20181105043847 62 237 13.0 21.0 0.00 0.00 0.00 61 1011.0
20181105042851 63 254 18.0 21.0 0.00 0.00 0.00 58 1010.6
20181105042347 62 247 16.0 21.0 0.00 0.00 0.00 60 1010.7
20181105041351 63 249 19.0 22.0 0.00 0.00 0.00 59 1010.5
20181105040355 64 250 18.0 24.0 0.00 0.00 0.00 56 1010.6
20181105035342 65 243 16.0 22.0 0.00 0.00 0.00 54 1010.6
20181105034341 64 245 17.0 24.0 0.00 0.00 0.00 56 1010.5
20181105033345 64 243 19.0 26.0 0.00 0.00 0.00 55 1010.5
20181105032350 64 240 22.0 26.0 0.00 0.00 0.00 55 1010.2
20181105031350 64 244 22.0 27.0 0.00 0.00 0.00 55 1010.4
20181105030355 64 241 25.0 28.0 0.00 0.00 0.00 54 1010.0
20181105024847 64 249 22.0 25.0 0.00 0.00 0.00 54 1010.2
20181105023852 65 218 18.0 22.0 0.00 0.00 0.00 52 1010.4
20181105022854 65 247 20.0 25.0 0.00 0.00 0.00 50 1010.1
20181105021842 66 246 20.0 26.0 0.00 0.00 0.00 50 1009.8
20181105020843 66 244 22.0 26.0 0.00 0.00 0.00 49 1009.6
20181105015847 66 235 22.0 26.0 0.00 0.00 0.00 48 1009.6
20181105015335 66 247 19.0 26.0 0.00 0.00 0.00 49 1009.7
20181105014336 66 252 23.0 27.0 0.00 0.00 0.00 49 1009.3
20181105013346 66 242 19.0 22.0 0.00 0.00 0.00 50 1009.7
20181105012349 66 246 14.0 23.0 0.00 0.00 0.00 49 1010.1
20181105011352 67 248 20.0 26.0 0.00 0.00 0.00 48 1009.9
20181105010354 67 245 20.0 25.0 0.00 0.00 0.00 47 1009.8
20181105005835 67 225 19.0 26.0 0.00 0.00 0.00 46 1009.9
20181105004838 68 229 23.0 26.0 0.00 0.00 0.00 45 1009.9
20181105003844 69 240 20.0 26.0 0.00 0.00 0.00 42 1010.0
20181105002846 70 244 24.0 30.0 0.00 0.00 0.00 42 1009.9
20181105001340 71 238 26.0 31.0 0.00 0.00 0.00 42 1009.6
20181104235849 71 241 26.0 30.0 0.00 0.00 0.00 41 1009.8
20181104234853 71 250 25.0 31.0 0.00 0.00 0.00 42 1009.8
20181104233855 71 240 26.0 30.0 0.00 0.00 0.00 42 1010.0
20181104232855 72 245 24.0 29.0 0.00 0.00 0.00 43 1010.1
20181104231839 72 240 22.0 28.0 0.00 0.00 0.00 42 1010.6
20181104230842 72 238 22.0 27.0 0.00 0.00 0.00 41 1010.5
20181104225844 73 266 24.0 28.0 0.00 0.00 0.00 37 1010.5
20181104224851 73 259 23.0 30.0 0.00 0.00 0.00 37 1010.7
20181104223854 73 245 24.0 29.0 0.00 0.00 0.00 37 1010.7
20181104223334 73 242 24.0 29.0 0.00 0.00 0.00 38 1010.8
20181104222355 73 251 23.0 26.0 0.00 0.00 0.00 38 1011.0
20181104221836 73 243 21.0 25.0 0.00 0.00 0.00 38 1011.1
20181104220841 72 266 21.0 25.0 0.00 0.00 0.00 38 1011.2
20181104215843 72 257 20.0 25.0 0.00 0.00 0.00 39 1011.2
20181104214854 72 251 18.0 24.0 0.00 0.00 0.00 39 1011.5
20181104213834 71 250 19.0 24.0 0.00 0.00 0.00 39 1011.8
20181104212844 71 253 17.0 20.0 0.00 0.00 0.00 41 1011.9
20181104211845 71 254 18.0 22.0 0.00 0.00 0.00 38 1012.2
20181104210854 70 247 16.0 20.0 0.00 0.00 0.00 44 1012.0
20181104205855 70 216 17.0 22.0 0.00 0.00 0.00 41 1012.1
20181104205338 70 251 17.0 22.0 0.00 0.00 0.00 41 1012.0
20181104204343 68 242 19.0 23.0 0.00 0.00 0.00 43 1012.3
20181104203348 67 238 20.0 25.0 0.00 0.00 0.00 45 1012.4
20181104202849 67 235 22.0 25.0 0.00 0.00 0.00 43 1012.2
20181104201850 68 247 20.0 24.0 0.00 0.00 0.00 41 1012.6
20181104200836 68 242 22.0 27.0 0.00 0.00 0.00 47 1012.8
20181104195842 68 238 22.0 26.0 0.00 0.00 0.00 43 1012.7